<?xml version="1.0" encoding="UTF-8" standalone="no" ?>
<gpx xmlns="http://www.topografix.com/GPX/1/1" creator="CompeGPS" version="1.1" xmlns:xsi="http://www.w3.org/2001/XMLSchema-instance" xsi:schemaLocation="http://www.topografix.com/GPX/1/1 http://www.topografix.com/GPX/1/1/gpx.xsd http://www.garmin.com/xmlschemas/GpxExtensions/v3 http://www.garmin.com/xmlschemas/GpxExtensionsv3.xsd http://www.garmin.com/xmlschemas/TrackPointExtension/v1 http://www.garmin.com/xmlschemas/TrackPointExtensionv1.xsd" xmlns:gpxtpx="http://www.garmin.com/xmlschemas/TrackPointExtension/v1">
  <metadata>
    <link href="http://www.compegps.com">
      <text>CompeGPS TEAM, SL</text>
    </link>
    <time>2020-07-10T19:08:36Z</time>
    <bounds maxlat="43.677826" maxlon="1.168446" minlat="43.653619" minlon="1.137777"/>
  </metadata>
    <wpt lat="43.669044" lon="1.138305">
    <ele>220.3</ele>
    <time>2020-04-07T08:11:34Z</time>
    <name>Chemin d En Pic</name>
    <desc></desc>
    <sym>Waypoint</sym>
  </wpt>
  <wpt lat="43.657381" lon="1.144854">
    <ele>177.0</ele>
    <time>2020-04-07T08:25:16Z</time>
    <name>Chemin d En Pelemau</name>
    <desc></desc>
    <sym>Waypoint</sym>
  </wpt>
  <wpt lat="43.671432" lon="1.155836">
    <ele>194.9</ele>
    <time>2020-04-07T08:56:47Z</time>
    <name>Chemin de Lousset</name>
    <desc></desc>
    <sym>Waypoint</sym>
  </wpt>
  <wpt lat="43.662259" lon="1.168414">
    <ele>141.9</ele>
    <time>2020-04-07T08:57:03Z</time>
    <name>Hameau de Larmont</name>
    <desc></desc>
    <sym>Waypoint</sym>
  </wpt>
  <wpt lat="43.657048" lon="1.148742">
    <ele>175.4</ele>
    <time>2020-04-07T08:57:18Z</time>
    <name>Chapelle de Pradere</name>
    <desc></desc>
    <sym>Waypoint</sym>
  </wpt>
  <wpt lat="43.677812" lon="1.151145">
    <ele>175.3</ele>
    <time>2020-04-07T12:18:59Z</time>
    <name>Carrefour de Magnet</name>
    <desc></desc>
    <sym>Waypoint</sym>
  </wpt>
<trk>
    <name>castera</name>
    <userMyTwoNav></userMyTwoNav>
    <serialNumber></serialNumber>
    <trkseg>
      <trkpt lat="43.672067" lon="1.139148">
        <ele>226.4</ele>
        <time>2020-07-10T13:05:32Z</time>
      </trkpt>
      <trkpt lat="43.672038" lon="1.139007">
        <ele>226.4</ele>
        <time>2020-07-10T13:05:37Z</time>
      </trkpt>
      <trkpt lat="43.672016" lon="1.138881">
        <ele>226.5</ele>
        <time>2020-07-10T13:05:41Z</time>
      </trkpt>
      <trkpt lat="43.671980" lon="1.138733">
        <ele>226.5</ele>
        <time>2020-07-10T13:05:44Z</time>
      </trkpt>
      <trkpt lat="43.671935" lon="1.138596">
        <ele>225.1</ele>
        <time>2020-07-10T13:05:46Z</time>
      </trkpt>
      <trkpt lat="43.671870" lon="1.138453">
        <ele>224.1</ele>
        <time>2020-07-10T13:05:48Z</time>
      </trkpt>
      <trkpt lat="43.671781" lon="1.138314">
        <ele>221.9</ele>
        <time>2020-07-10T13:05:50Z</time>
      </trkpt>
      <trkpt lat="43.671684" lon="1.138201">
        <ele>219.9</ele>
        <time>2020-07-10T13:05:52Z</time>
      </trkpt>
      <trkpt lat="43.671572" lon="1.138089">
        <ele>219.0</ele>
        <time>2020-07-10T13:05:54Z</time>
      </trkpt>
      <trkpt lat="43.671433" lon="1.137992">
        <ele>217.3</ele>
        <time>2020-07-10T13:05:56Z</time>
      </trkpt>
      <trkpt lat="43.671286" lon="1.137907">
        <ele>215.4</ele>
        <time>2020-07-10T13:05:58Z</time>
      </trkpt>
      <trkpt lat="43.671129" lon="1.137844">
        <ele>213.6</ele>
        <time>2020-07-10T13:06:00Z</time>
      </trkpt>
      <trkpt lat="43.670966" lon="1.137806">
        <ele>211.2</ele>
        <time>2020-07-10T13:06:02Z</time>
      </trkpt>
      <trkpt lat="43.670809" lon="1.137784">
        <ele>209.4</ele>
        <time>2020-07-10T13:06:04Z</time>
      </trkpt>
      <trkpt lat="43.670652" lon="1.137777">
        <ele>207.2</ele>
        <time>2020-07-10T13:06:06Z</time>
      </trkpt>
      <trkpt lat="43.670509" lon="1.137789">
        <ele>205.2</ele>
        <time>2020-07-10T13:06:08Z</time>
      </trkpt>
      <trkpt lat="43.670387" lon="1.137825">
        <ele>203.4</ele>
        <time>2020-07-10T13:06:10Z</time>
      </trkpt>
      <trkpt lat="43.670284" lon="1.137877">
        <ele>201.9</ele>
        <time>2020-07-10T13:06:12Z</time>
      </trkpt>
      <trkpt lat="43.670196" lon="1.137938">
        <ele>200.0</ele>
        <time>2020-07-10T13:06:14Z</time>
      </trkpt>
      <trkpt lat="43.670105" lon="1.137992">
        <ele>199.0</ele>
        <time>2020-07-10T13:06:16Z</time>
      </trkpt>
      <trkpt lat="43.670008" lon="1.138044">
        <ele>197.6</ele>
        <time>2020-07-10T13:06:18Z</time>
      </trkpt>
      <trkpt lat="43.669902" lon="1.138082">
        <ele>196.9</ele>
        <time>2020-07-10T13:06:20Z</time>
      </trkpt>
      <trkpt lat="43.669771" lon="1.138122">
        <ele>194.7</ele>
        <time>2020-07-10T13:06:22Z</time>
      </trkpt>
      <trkpt lat="43.669641" lon="1.138156">
        <ele>192.7</ele>
        <time>2020-07-10T13:06:24Z</time>
      </trkpt>
      <trkpt lat="43.669512" lon="1.138189">
        <ele>191.8</ele>
        <time>2020-07-10T13:06:26Z</time>
      </trkpt>
      <trkpt lat="43.669385" lon="1.138228">
        <ele>190.4</ele>
        <time>2020-07-10T13:06:28Z</time>
      </trkpt>
      <trkpt lat="43.669261" lon="1.138256">
        <ele>189.3</ele>
        <time>2020-07-10T13:06:30Z</time>
      </trkpt>
      <trkpt lat="43.669150" lon="1.138292">
        <ele>188.0</ele>
        <time>2020-07-10T13:06:32Z</time>
      </trkpt>
      <trkpt lat="43.669041" lon="1.138343">
        <ele>187.4</ele>
        <time>2020-07-10T13:06:35Z</time>
      </trkpt>
      <trkpt lat="43.668969" lon="1.138425">
        <ele>186.6</ele>
        <time>2020-07-10T13:06:38Z</time>
      </trkpt>
      <trkpt lat="43.668910" lon="1.138513">
        <ele>186.8</ele>
        <time>2020-07-10T13:06:45Z</time>
      </trkpt>
      <trkpt lat="43.668853" lon="1.138586">
        <ele>186.9</ele>
        <time>2020-07-10T13:08:44Z</time>
      </trkpt>
      <trkpt lat="43.668767" lon="1.138682">
        <ele>186.9</ele>
        <time>2020-07-10T13:08:48Z</time>
      </trkpt>
      <trkpt lat="43.668703" lon="1.138776">
        <ele>187.0</ele>
        <time>2020-07-10T13:08:51Z</time>
      </trkpt>
      <trkpt lat="43.668629" lon="1.138875">
        <ele>186.0</ele>
        <time>2020-07-10T13:08:54Z</time>
      </trkpt>
      <trkpt lat="43.668553" lon="1.138972">
        <ele>186.1</ele>
        <time>2020-07-10T13:08:57Z</time>
      </trkpt>
      <trkpt lat="43.668470" lon="1.139066">
        <ele>186.1</ele>
        <time>2020-07-10T13:09:00Z</time>
      </trkpt>
      <trkpt lat="43.668390" lon="1.139142">
        <ele>186.1</ele>
        <time>2020-07-10T13:09:03Z</time>
      </trkpt>
      <trkpt lat="43.668286" lon="1.139233">
        <ele>186.1</ele>
        <time>2020-07-10T13:09:07Z</time>
      </trkpt>
      <trkpt lat="43.668210" lon="1.139310">
        <ele>186.2</ele>
        <time>2020-07-10T13:09:10Z</time>
      </trkpt>
      <trkpt lat="43.668106" lon="1.139413">
        <ele>186.2</ele>
        <time>2020-07-10T13:09:14Z</time>
      </trkpt>
      <trkpt lat="43.668014" lon="1.139495">
        <ele>186.2</ele>
        <time>2020-07-10T13:09:18Z</time>
      </trkpt>
      <trkpt lat="43.667935" lon="1.139562">
        <ele>186.3</ele>
        <time>2020-07-10T13:09:21Z</time>
      </trkpt>
      <trkpt lat="43.667854" lon="1.139629">
        <ele>186.3</ele>
        <time>2020-07-10T13:09:24Z</time>
      </trkpt>
      <trkpt lat="43.667753" lon="1.139720">
        <ele>186.3</ele>
        <time>2020-07-10T13:09:28Z</time>
      </trkpt>
      <trkpt lat="43.667657" lon="1.139814">
        <ele>186.4</ele>
        <time>2020-07-10T13:09:32Z</time>
      </trkpt>
      <trkpt lat="43.667569" lon="1.139909">
        <ele>188.8</ele>
        <time>2020-07-10T13:09:36Z</time>
      </trkpt>
      <trkpt lat="43.667492" lon="1.139984">
        <ele>188.8</ele>
        <time>2020-07-10T13:09:39Z</time>
      </trkpt>
      <trkpt lat="43.667403" lon="1.140066">
        <ele>188.8</ele>
        <time>2020-07-10T13:09:42Z</time>
      </trkpt>
      <trkpt lat="43.667318" lon="1.140150">
        <ele>186.6</ele>
        <time>2020-07-10T13:09:45Z</time>
      </trkpt>
      <trkpt lat="43.667226" lon="1.140240">
        <ele>185.4</ele>
        <time>2020-07-10T13:09:48Z</time>
      </trkpt>
      <trkpt lat="43.667139" lon="1.140321">
        <ele>183.1</ele>
        <time>2020-07-10T13:09:51Z</time>
      </trkpt>
      <trkpt lat="43.667049" lon="1.140404">
        <ele>182.1</ele>
        <time>2020-07-10T13:09:54Z</time>
      </trkpt>
      <trkpt lat="43.666948" lon="1.140496">
        <ele>180.1</ele>
        <time>2020-07-10T13:09:57Z</time>
      </trkpt>
      <trkpt lat="43.666834" lon="1.140595">
        <ele>179.4</ele>
        <time>2020-07-10T13:10:00Z</time>
      </trkpt>
      <trkpt lat="43.666761" lon="1.140686">
        <ele>178.5</ele>
        <time>2020-07-10T13:10:02Z</time>
      </trkpt>
      <trkpt lat="43.666711" lon="1.140791">
        <ele>178.5</ele>
        <time>2020-07-10T13:10:04Z</time>
      </trkpt>
      <trkpt lat="43.666681" lon="1.140912">
        <ele>178.5</ele>
        <time>2020-07-10T13:10:06Z</time>
      </trkpt>
      <trkpt lat="43.666654" lon="1.141085">
        <ele>178.5</ele>
        <time>2020-07-10T13:10:09Z</time>
      </trkpt>
      <trkpt lat="43.666617" lon="1.141247">
        <ele>178.6</ele>
        <time>2020-07-10T13:10:12Z</time>
      </trkpt>
      <trkpt lat="43.666588" lon="1.141414">
        <ele>177.8</ele>
        <time>2020-07-10T13:10:15Z</time>
      </trkpt>
      <trkpt lat="43.666572" lon="1.141567">
        <ele>177.8</ele>
        <time>2020-07-10T13:10:18Z</time>
      </trkpt>
      <trkpt lat="43.666548" lon="1.141694">
        <ele>177.1</ele>
        <time>2020-07-10T13:10:22Z</time>
      </trkpt>
      <trkpt lat="43.666475" lon="1.141757">
        <ele>176.3</ele>
        <time>2020-07-10T13:10:26Z</time>
      </trkpt>
      <trkpt lat="43.666357" lon="1.141754">
        <ele>175.4</ele>
        <time>2020-07-10T13:10:30Z</time>
      </trkpt>
      <trkpt lat="43.666257" lon="1.141750">
        <ele>173.2</ele>
        <time>2020-07-10T13:10:33Z</time>
      </trkpt>
      <trkpt lat="43.666149" lon="1.141744">
        <ele>171.7</ele>
        <time>2020-07-10T13:10:36Z</time>
      </trkpt>
      <trkpt lat="43.666035" lon="1.141740">
        <ele>169.0</ele>
        <time>2020-07-10T13:10:39Z</time>
      </trkpt>
      <trkpt lat="43.665920" lon="1.141738">
        <ele>166.6</ele>
        <time>2020-07-10T13:10:42Z</time>
      </trkpt>
      <trkpt lat="43.665815" lon="1.141732">
        <ele>164.5</ele>
        <time>2020-07-10T13:10:45Z</time>
      </trkpt>
      <trkpt lat="43.665716" lon="1.141730">
        <ele>163.5</ele>
        <time>2020-07-10T13:10:48Z</time>
      </trkpt>
      <trkpt lat="43.665610" lon="1.141727">
        <ele>161.1</ele>
        <time>2020-07-10T13:10:51Z</time>
      </trkpt>
      <trkpt lat="43.665503" lon="1.141730">
        <ele>160.3</ele>
        <time>2020-07-10T13:10:54Z</time>
      </trkpt>
      <trkpt lat="43.665399" lon="1.141736">
        <ele>158.4</ele>
        <time>2020-07-10T13:10:57Z</time>
      </trkpt>
      <trkpt lat="43.665296" lon="1.141724">
        <ele>157.4</ele>
        <time>2020-07-10T13:11:00Z</time>
      </trkpt>
      <trkpt lat="43.665176" lon="1.141716">
        <ele>156.5</ele>
        <time>2020-07-10T13:11:03Z</time>
      </trkpt>
      <trkpt lat="43.665053" lon="1.141715">
        <ele>155.6</ele>
        <time>2020-07-10T13:11:06Z</time>
      </trkpt>
      <trkpt lat="43.664936" lon="1.141719">
        <ele>155.7</ele>
        <time>2020-07-10T13:11:09Z</time>
      </trkpt>
      <trkpt lat="43.664826" lon="1.141715">
        <ele>154.9</ele>
        <time>2020-07-10T13:11:12Z</time>
      </trkpt>
      <trkpt lat="43.664723" lon="1.141713">
        <ele>154.2</ele>
        <time>2020-07-10T13:11:15Z</time>
      </trkpt>
      <trkpt lat="43.664622" lon="1.141712">
        <ele>153.5</ele>
        <time>2020-07-10T13:11:18Z</time>
      </trkpt>
      <trkpt lat="43.664519" lon="1.141717">
        <ele>152.7</ele>
        <time>2020-07-10T13:11:21Z</time>
      </trkpt>
      <trkpt lat="43.664428" lon="1.141711">
        <ele>151.6</ele>
        <time>2020-07-10T13:11:24Z</time>
      </trkpt>
      <trkpt lat="43.664325" lon="1.141722">
        <ele>149.4</ele>
        <time>2020-07-10T13:12:24Z</time>
      </trkpt>
      <trkpt lat="43.664214" lon="1.141716">
        <ele>148.2</ele>
        <time>2020-07-10T13:12:27Z</time>
      </trkpt>
      <trkpt lat="43.664094" lon="1.141710">
        <ele>145.7</ele>
        <time>2020-07-10T13:12:30Z</time>
      </trkpt>
      <trkpt lat="43.663982" lon="1.141706">
        <ele>144.3</ele>
        <time>2020-07-10T13:12:33Z</time>
      </trkpt>
      <trkpt lat="43.663875" lon="1.141706">
        <ele>142.7</ele>
        <time>2020-07-10T13:12:36Z</time>
      </trkpt>
      <trkpt lat="43.663750" lon="1.141704">
        <ele>141.1</ele>
        <time>2020-07-10T13:12:39Z</time>
      </trkpt>
      <trkpt lat="43.663623" lon="1.141705">
        <ele>139.2</ele>
        <time>2020-07-10T13:12:42Z</time>
      </trkpt>
      <trkpt lat="43.663500" lon="1.141704">
        <ele>138.4</ele>
        <time>2020-07-10T13:12:45Z</time>
      </trkpt>
      <trkpt lat="43.663379" lon="1.141705">
        <ele>137.6</ele>
        <time>2020-07-10T13:12:48Z</time>
      </trkpt>
      <trkpt lat="43.663270" lon="1.141706">
        <ele>136.8</ele>
        <time>2020-07-10T13:12:51Z</time>
      </trkpt>
      <trkpt lat="43.663162" lon="1.141708">
        <ele>136.1</ele>
        <time>2020-07-10T13:12:55Z</time>
      </trkpt>
      <trkpt lat="43.663075" lon="1.141746">
        <ele>136.1</ele>
        <time>2020-07-10T13:12:59Z</time>
      </trkpt>
      <trkpt lat="43.662988" lon="1.141793">
        <ele>136.2</ele>
        <time>2020-07-10T13:13:12Z</time>
      </trkpt>
      <trkpt lat="43.662903" lon="1.141849">
        <ele>136.3</ele>
        <time>2020-07-10T13:13:21Z</time>
      </trkpt>
      <trkpt lat="43.662808" lon="1.141924">
        <ele>136.3</ele>
        <time>2020-07-10T13:13:28Z</time>
      </trkpt>
      <trkpt lat="43.662726" lon="1.142002">
        <ele>136.3</ele>
        <time>2020-07-10T13:13:33Z</time>
      </trkpt>
      <trkpt lat="43.662642" lon="1.142068">
        <ele>136.4</ele>
        <time>2020-07-10T13:13:38Z</time>
      </trkpt>
      <trkpt lat="43.662555" lon="1.142125">
        <ele>139.6</ele>
        <time>2020-07-10T13:13:44Z</time>
      </trkpt>
      <trkpt lat="43.662475" lon="1.142208">
        <ele>140.4</ele>
        <time>2020-07-10T13:13:49Z</time>
      </trkpt>
      <trkpt lat="43.662387" lon="1.142295">
        <ele>141.4</ele>
        <time>2020-07-10T13:13:55Z</time>
      </trkpt>
      <trkpt lat="43.662312" lon="1.142383">
        <ele>142.6</ele>
        <time>2020-07-10T13:14:00Z</time>
      </trkpt>
      <trkpt lat="43.662237" lon="1.142470">
        <ele>144.1</ele>
        <time>2020-07-10T13:14:06Z</time>
      </trkpt>
      <trkpt lat="43.662161" lon="1.142571">
        <ele>145.9</ele>
        <time>2020-07-10T13:14:13Z</time>
      </trkpt>
      <trkpt lat="43.662098" lon="1.142679">
        <ele>146.8</ele>
        <time>2020-07-10T13:14:20Z</time>
      </trkpt>
      <trkpt lat="43.662018" lon="1.142762">
        <ele>148.4</ele>
        <time>2020-07-10T13:14:27Z</time>
      </trkpt>
      <trkpt lat="43.661949" lon="1.142846">
        <ele>149.2</ele>
        <time>2020-07-10T13:14:33Z</time>
      </trkpt>
      <trkpt lat="43.661879" lon="1.142933">
        <ele>150.1</ele>
        <time>2020-07-10T13:14:39Z</time>
      </trkpt>
      <trkpt lat="43.661809" lon="1.143024">
        <ele>151.9</ele>
        <time>2020-07-10T13:14:45Z</time>
      </trkpt>
      <trkpt lat="43.661735" lon="1.143119">
        <ele>153.0</ele>
        <time>2020-07-10T13:14:52Z</time>
      </trkpt>
      <trkpt lat="43.661666" lon="1.143212">
        <ele>153.7</ele>
        <time>2020-07-10T13:15:00Z</time>
      </trkpt>
      <trkpt lat="43.661603" lon="1.143313">
        <ele>154.6</ele>
        <time>2020-07-10T13:15:07Z</time>
      </trkpt>
      <trkpt lat="43.661534" lon="1.143412">
        <ele>156.5</ele>
        <time>2020-07-10T13:15:14Z</time>
      </trkpt>
      <trkpt lat="43.661464" lon="1.143501">
        <ele>156.5</ele>
        <time>2020-07-10T13:15:21Z</time>
      </trkpt>
      <trkpt lat="43.661386" lon="1.143587">
        <ele>158.1</ele>
        <time>2020-07-10T13:15:29Z</time>
      </trkpt>
      <trkpt lat="43.661322" lon="1.143683">
        <ele>158.0</ele>
        <time>2020-07-10T13:15:36Z</time>
      </trkpt>
      <trkpt lat="43.661238" lon="1.143792">
        <ele>158.0</ele>
        <time>2020-07-10T13:15:42Z</time>
      </trkpt>
      <trkpt lat="43.661159" lon="1.143895">
        <ele>155.6</ele>
        <time>2020-07-10T13:15:46Z</time>
      </trkpt>
      <trkpt lat="43.661064" lon="1.144013">
        <ele>154.3</ele>
        <time>2020-07-10T13:15:50Z</time>
      </trkpt>
      <trkpt lat="43.660981" lon="1.144112">
        <ele>152.1</ele>
        <time>2020-07-10T13:15:53Z</time>
      </trkpt>
      <trkpt lat="43.660899" lon="1.144216">
        <ele>150.4</ele>
        <time>2020-07-10T13:15:56Z</time>
      </trkpt>
      <trkpt lat="43.660811" lon="1.144332">
        <ele>148.8</ele>
        <time>2020-07-10T13:15:59Z</time>
      </trkpt>
      <trkpt lat="43.660715" lon="1.144448">
        <ele>147.8</ele>
        <time>2020-07-10T13:16:02Z</time>
      </trkpt>
      <trkpt lat="43.660615" lon="1.144575">
        <ele>145.6</ele>
        <time>2020-07-10T13:16:05Z</time>
      </trkpt>
      <trkpt lat="43.660545" lon="1.144655">
        <ele>144.9</ele>
        <time>2020-07-10T13:16:07Z</time>
      </trkpt>
      <trkpt lat="43.660438" lon="1.144774">
        <ele>143.0</ele>
        <time>2020-07-10T13:16:10Z</time>
      </trkpt>
      <trkpt lat="43.660343" lon="1.144868">
        <ele>142.5</ele>
        <time>2020-07-10T13:16:13Z</time>
      </trkpt>
      <trkpt lat="43.660259" lon="1.144937">
        <ele>141.6</ele>
        <time>2020-07-10T13:16:16Z</time>
      </trkpt>
      <trkpt lat="43.660169" lon="1.145012">
        <ele>141.2</ele>
        <time>2020-07-10T13:16:19Z</time>
      </trkpt>
      <trkpt lat="43.660077" lon="1.145087">
        <ele>140.5</ele>
        <time>2020-07-10T13:16:22Z</time>
      </trkpt>
      <trkpt lat="43.659984" lon="1.145156">
        <ele>140.2</ele>
        <time>2020-07-10T13:16:25Z</time>
      </trkpt>
      <trkpt lat="43.659898" lon="1.145222">
        <ele>139.6</ele>
        <time>2020-07-10T13:16:28Z</time>
      </trkpt>
      <trkpt lat="43.659816" lon="1.145272">
        <ele>139.7</ele>
        <time>2020-07-10T13:16:31Z</time>
      </trkpt>
      <trkpt lat="43.659728" lon="1.145300">
        <ele>139.7</ele>
        <time>2020-07-10T13:16:37Z</time>
      </trkpt>
      <trkpt lat="43.659639" lon="1.145240">
        <ele>139.1</ele>
        <time>2020-07-10T13:17:03Z</time>
      </trkpt>
      <trkpt lat="43.659643" lon="1.145092">
        <ele>139.1</ele>
        <time>2020-07-10T13:17:08Z</time>
      </trkpt>
      <trkpt lat="43.659643" lon="1.144950">
        <ele>139.2</ele>
        <time>2020-07-10T13:17:13Z</time>
      </trkpt>
      <trkpt lat="43.659659" lon="1.144806">
        <ele>139.2</ele>
        <time>2020-07-10T13:17:18Z</time>
      </trkpt>
      <trkpt lat="43.659668" lon="1.144658">
        <ele>139.3</ele>
        <time>2020-07-10T13:17:23Z</time>
      </trkpt>
      <trkpt lat="43.659616" lon="1.144555">
        <ele>139.3</ele>
        <time>2020-07-10T13:17:28Z</time>
      </trkpt>
      <trkpt lat="43.659522" lon="1.144525">
        <ele>141.7</ele>
        <time>2020-07-10T13:17:34Z</time>
      </trkpt>
      <trkpt lat="43.659425" lon="1.144498">
        <ele>142.7</ele>
        <time>2020-07-10T13:17:41Z</time>
      </trkpt>
      <trkpt lat="43.659339" lon="1.144478">
        <ele>144.6</ele>
        <time>2020-07-10T13:17:51Z</time>
      </trkpt>
      <trkpt lat="43.659250" lon="1.144445">
        <ele>146.3</ele>
        <time>2020-07-10T13:18:00Z</time>
      </trkpt>
      <trkpt lat="43.659162" lon="1.144411">
        <ele>147.9</ele>
        <time>2020-07-10T13:18:09Z</time>
      </trkpt>
      <trkpt lat="43.659076" lon="1.144384">
        <ele>148.8</ele>
        <time>2020-07-10T13:18:18Z</time>
      </trkpt>
      <trkpt lat="43.658983" lon="1.144381">
        <ele>150.6</ele>
        <time>2020-07-10T13:18:27Z</time>
      </trkpt>
      <trkpt lat="43.658894" lon="1.144395">
        <ele>152.3</ele>
        <time>2020-07-10T13:18:36Z</time>
      </trkpt>
      <trkpt lat="43.658802" lon="1.144420">
        <ele>153.1</ele>
        <time>2020-07-10T13:18:45Z</time>
      </trkpt>
      <trkpt lat="43.658710" lon="1.144450">
        <ele>154.8</ele>
        <time>2020-07-10T13:18:54Z</time>
      </trkpt>
      <trkpt lat="43.658624" lon="1.144485">
        <ele>155.6</ele>
        <time>2020-07-10T13:19:03Z</time>
      </trkpt>
      <trkpt lat="43.658531" lon="1.144516">
        <ele>156.4</ele>
        <time>2020-07-10T13:19:12Z</time>
      </trkpt>
      <trkpt lat="43.658437" lon="1.144550">
        <ele>158.3</ele>
        <time>2020-07-10T13:19:21Z</time>
      </trkpt>
      <trkpt lat="43.658339" lon="1.144572">
        <ele>159.2</ele>
        <time>2020-07-10T13:19:30Z</time>
      </trkpt>
      <trkpt lat="43.658245" lon="1.144601">
        <ele>160.9</ele>
        <time>2020-07-10T13:19:39Z</time>
      </trkpt>
      <trkpt lat="43.658154" lon="1.144629">
        <ele>161.8</ele>
        <time>2020-07-10T13:19:48Z</time>
      </trkpt>
      <trkpt lat="43.658063" lon="1.144652">
        <ele>163.7</ele>
        <time>2020-07-10T13:19:58Z</time>
      </trkpt>
      <trkpt lat="43.657974" lon="1.144680">
        <ele>164.6</ele>
        <time>2020-07-10T13:20:07Z</time>
      </trkpt>
      <trkpt lat="43.657880" lon="1.144698">
        <ele>166.1</ele>
        <time>2020-07-10T13:20:16Z</time>
      </trkpt>
      <trkpt lat="43.657788" lon="1.144718">
        <ele>167.1</ele>
        <time>2020-07-10T13:20:25Z</time>
      </trkpt>
      <trkpt lat="43.657691" lon="1.144749">
        <ele>167.9</ele>
        <time>2020-07-10T13:20:34Z</time>
      </trkpt>
      <trkpt lat="43.657595" lon="1.144795">
        <ele>168.8</ele>
        <time>2020-07-10T13:20:43Z</time>
      </trkpt>
      <trkpt lat="43.657499" lon="1.144826">
        <ele>168.8</ele>
        <time>2020-07-10T13:20:52Z</time>
      </trkpt>
      <trkpt lat="43.657425" lon="1.144875">
        <ele>168.8</ele>
        <time>2020-07-10T13:21:06Z</time>
      </trkpt>
      <trkpt lat="43.657359" lon="1.144910">
        <ele>169.0</ele>
        <time>2020-07-10T13:21:54Z</time>
      </trkpt>
      <trkpt lat="43.657342" lon="1.144917">
        <ele>170.6</ele>
        <time>2020-07-10T13:24:37Z</time>
      </trkpt>
      <trkpt lat="43.657298" lon="1.145036">
        <ele>170.6</ele>
        <time>2020-07-10T13:24:41Z</time>
      </trkpt>
      <trkpt lat="43.657257" lon="1.145194">
        <ele>168.2</ele>
        <time>2020-07-10T13:24:44Z</time>
      </trkpt>
      <trkpt lat="43.657222" lon="1.145328">
        <ele>168.2</ele>
        <time>2020-07-10T13:24:46Z</time>
      </trkpt>
      <trkpt lat="43.657186" lon="1.145474">
        <ele>167.2</ele>
        <time>2020-07-10T13:24:48Z</time>
      </trkpt>
      <trkpt lat="43.657147" lon="1.145625">
        <ele>166.4</ele>
        <time>2020-07-10T13:24:50Z</time>
      </trkpt>
      <trkpt lat="43.657109" lon="1.145779">
        <ele>166.4</ele>
        <time>2020-07-10T13:24:52Z</time>
      </trkpt>
      <trkpt lat="43.657074" lon="1.145930">
        <ele>166.4</ele>
        <time>2020-07-10T13:24:54Z</time>
      </trkpt>
      <trkpt lat="43.657038" lon="1.146077">
        <ele>166.4</ele>
        <time>2020-07-10T13:24:56Z</time>
      </trkpt>
      <trkpt lat="43.657010" lon="1.146227">
        <ele>166.4</ele>
        <time>2020-07-10T13:24:58Z</time>
      </trkpt>
      <trkpt lat="43.656987" lon="1.146378">
        <ele>166.5</ele>
        <time>2020-07-10T13:25:00Z</time>
      </trkpt>
      <trkpt lat="43.656966" lon="1.146532">
        <ele>166.6</ele>
        <time>2020-07-10T13:25:02Z</time>
      </trkpt>
      <trkpt lat="43.656956" lon="1.146695">
        <ele>165.8</ele>
        <time>2020-07-10T13:25:04Z</time>
      </trkpt>
      <trkpt lat="43.656951" lon="1.146858">
        <ele>165.8</ele>
        <time>2020-07-10T13:25:06Z</time>
      </trkpt>
      <trkpt lat="43.656950" lon="1.147021">
        <ele>165.8</ele>
        <time>2020-07-10T13:25:08Z</time>
      </trkpt>
      <trkpt lat="43.656948" lon="1.147181">
        <ele>165.8</ele>
        <time>2020-07-10T13:25:10Z</time>
      </trkpt>
      <trkpt lat="43.656949" lon="1.147343">
        <ele>165.8</ele>
        <time>2020-07-10T13:25:12Z</time>
      </trkpt>
      <trkpt lat="43.656951" lon="1.147500">
        <ele>165.8</ele>
        <time>2020-07-10T13:25:14Z</time>
      </trkpt>
      <trkpt lat="43.656953" lon="1.147652">
        <ele>165.9</ele>
        <time>2020-07-10T13:25:16Z</time>
      </trkpt>
      <trkpt lat="43.656953" lon="1.147795">
        <ele>165.9</ele>
        <time>2020-07-10T13:25:18Z</time>
      </trkpt>
      <trkpt lat="43.656953" lon="1.147929">
        <ele>165.9</ele>
        <time>2020-07-10T13:25:20Z</time>
      </trkpt>
      <trkpt lat="43.656952" lon="1.148053">
        <ele>165.9</ele>
        <time>2020-07-10T13:25:22Z</time>
      </trkpt>
      <trkpt lat="43.656953" lon="1.148225">
        <ele>166.0</ele>
        <time>2020-07-10T13:25:25Z</time>
      </trkpt>
      <trkpt lat="43.656954" lon="1.148392">
        <ele>166.0</ele>
        <time>2020-07-10T13:25:28Z</time>
      </trkpt>
      <trkpt lat="43.656954" lon="1.148562">
        <ele>166.0</ele>
        <time>2020-07-10T13:25:31Z</time>
      </trkpt>
      <trkpt lat="43.656954" lon="1.148729">
        <ele>166.0</ele>
        <time>2020-07-10T13:25:34Z</time>
      </trkpt>
      <trkpt lat="43.656945" lon="1.148883">
        <ele>166.1</ele>
        <time>2020-07-10T13:25:37Z</time>
      </trkpt>
      <trkpt lat="43.657052" lon="1.149060">
        <ele>171.5</ele>
        <time>2020-07-10T13:25:47Z</time>
      </trkpt>
      <trkpt lat="43.657043" lon="1.149187">
        <ele>173.3</ele>
        <time>2020-07-10T13:26:01Z</time>
      </trkpt>
      <trkpt lat="43.657030" lon="1.149283">
        <ele>174.2</ele>
        <time>2020-07-10T13:26:13Z</time>
      </trkpt>
      <trkpt lat="43.657020" lon="1.149342">
        <ele>174.4</ele>
        <time>2020-07-10T13:27:13Z</time>
      </trkpt>
      <trkpt lat="43.657013" lon="1.149473">
        <ele>174.4</ele>
        <time>2020-07-10T13:27:25Z</time>
      </trkpt>
      <trkpt lat="43.657013" lon="1.149537">
        <ele>175.3</ele>
        <time>2020-07-10T13:28:18Z</time>
      </trkpt>
      <trkpt lat="43.656995" lon="1.149438">
        <ele>175.3</ele>
        <time>2020-07-10T13:28:31Z</time>
      </trkpt>
      <trkpt lat="43.656987" lon="1.149304">
        <ele>175.4</ele>
        <time>2020-07-10T13:28:42Z</time>
      </trkpt>
      <trkpt lat="43.657002" lon="1.149174">
        <ele>175.3</ele>
        <time>2020-07-10T13:28:54Z</time>
      </trkpt>
      <trkpt lat="43.657008" lon="1.149036">
        <ele>173.6</ele>
        <time>2020-07-10T13:30:38Z</time>
      </trkpt>
      <trkpt lat="43.656933" lon="1.148948">
        <ele>171.9</ele>
        <time>2020-07-10T13:30:42Z</time>
      </trkpt>
      <trkpt lat="43.656941" lon="1.148821">
        <ele>169.8</ele>
        <time>2020-07-10T13:30:47Z</time>
      </trkpt>
      <trkpt lat="43.656901" lon="1.148790">
        <ele>169.3</ele>
        <time>2020-07-10T13:31:18Z</time>
      </trkpt>
      <trkpt lat="43.656806" lon="1.148819">
        <ele>169.3</ele>
        <time>2020-07-10T13:31:21Z</time>
      </trkpt>
      <trkpt lat="43.656692" lon="1.148815">
        <ele>168.3</ele>
        <time>2020-07-10T13:31:24Z</time>
      </trkpt>
      <trkpt lat="43.656589" lon="1.148813">
        <ele>166.5</ele>
        <time>2020-07-10T13:31:27Z</time>
      </trkpt>
      <trkpt lat="43.656488" lon="1.148804">
        <ele>165.7</ele>
        <time>2020-07-10T13:31:30Z</time>
      </trkpt>
      <trkpt lat="43.656381" lon="1.148794">
        <ele>163.7</ele>
        <time>2020-07-10T13:31:33Z</time>
      </trkpt>
      <trkpt lat="43.656272" lon="1.148777">
        <ele>162.3</ele>
        <time>2020-07-10T13:31:36Z</time>
      </trkpt>
      <trkpt lat="43.656168" lon="1.148744">
        <ele>159.6</ele>
        <time>2020-07-10T13:31:39Z</time>
      </trkpt>
      <trkpt lat="43.656060" lon="1.148721">
        <ele>157.3</ele>
        <time>2020-07-10T13:31:42Z</time>
      </trkpt>
      <trkpt lat="43.655954" lon="1.148694">
        <ele>156.1</ele>
        <time>2020-07-10T13:31:45Z</time>
      </trkpt>
      <trkpt lat="43.655841" lon="1.148661">
        <ele>153.3</ele>
        <time>2020-07-10T13:31:48Z</time>
      </trkpt>
      <trkpt lat="43.655742" lon="1.148625">
        <ele>152.2</ele>
        <time>2020-07-10T13:31:51Z</time>
      </trkpt>
      <trkpt lat="43.655655" lon="1.148578">
        <ele>150.0</ele>
        <time>2020-07-10T13:31:54Z</time>
      </trkpt>
      <trkpt lat="43.655567" lon="1.148517">
        <ele>148.7</ele>
        <time>2020-07-10T13:31:57Z</time>
      </trkpt>
      <trkpt lat="43.655478" lon="1.148451">
        <ele>146.8</ele>
        <time>2020-07-10T13:32:00Z</time>
      </trkpt>
      <trkpt lat="43.655386" lon="1.148381">
        <ele>145.7</ele>
        <time>2020-07-10T13:32:03Z</time>
      </trkpt>
      <trkpt lat="43.655298" lon="1.148304">
        <ele>143.6</ele>
        <time>2020-07-10T13:32:06Z</time>
      </trkpt>
      <trkpt lat="43.655209" lon="1.148227">
        <ele>142.6</ele>
        <time>2020-07-10T13:32:09Z</time>
      </trkpt>
      <trkpt lat="43.655105" lon="1.148133">
        <ele>140.5</ele>
        <time>2020-07-10T13:32:13Z</time>
      </trkpt>
      <trkpt lat="43.655020" lon="1.148054">
        <ele>139.4</ele>
        <time>2020-07-10T13:32:16Z</time>
      </trkpt>
      <trkpt lat="43.654929" lon="1.147981">
        <ele>137.8</ele>
        <time>2020-07-10T13:32:19Z</time>
      </trkpt>
      <trkpt lat="43.654836" lon="1.147910">
        <ele>135.7</ele>
        <time>2020-07-10T13:32:22Z</time>
      </trkpt>
      <trkpt lat="43.654736" lon="1.147858">
        <ele>134.7</ele>
        <time>2020-07-10T13:32:25Z</time>
      </trkpt>
      <trkpt lat="43.654615" lon="1.147863">
        <ele>134.0</ele>
        <time>2020-07-10T13:32:29Z</time>
      </trkpt>
      <trkpt lat="43.654516" lon="1.147916">
        <ele>132.1</ele>
        <time>2020-07-10T13:32:32Z</time>
      </trkpt>
      <trkpt lat="43.654425" lon="1.147985">
        <ele>131.2</ele>
        <time>2020-07-10T13:32:35Z</time>
      </trkpt>
      <trkpt lat="43.654330" lon="1.148050">
        <ele>128.6</ele>
        <time>2020-07-10T13:32:38Z</time>
      </trkpt>
      <trkpt lat="43.654232" lon="1.148113">
        <ele>127.8</ele>
        <time>2020-07-10T13:32:41Z</time>
      </trkpt>
      <trkpt lat="43.654125" lon="1.148192">
        <ele>126.1</ele>
        <time>2020-07-10T13:32:44Z</time>
      </trkpt>
      <trkpt lat="43.654011" lon="1.148262">
        <ele>126.1</ele>
        <time>2020-07-10T13:32:47Z</time>
      </trkpt>
      <trkpt lat="43.653910" lon="1.148338">
        <ele>125.1</ele>
        <time>2020-07-10T13:32:50Z</time>
      </trkpt>
      <trkpt lat="43.653800" lon="1.148394">
        <ele>124.4</ele>
        <time>2020-07-10T13:32:53Z</time>
      </trkpt>
      <trkpt lat="43.653689" lon="1.148427">
        <ele>123.6</ele>
        <time>2020-07-10T13:32:56Z</time>
      </trkpt>
      <trkpt lat="43.653619" lon="1.148500">
        <ele>122.8</ele>
        <time>2020-07-10T13:33:01Z</time>
      </trkpt>
      <trkpt lat="43.653669" lon="1.148626">
        <ele>122.9</ele>
        <time>2020-07-10T13:33:06Z</time>
      </trkpt>
      <trkpt lat="43.653727" lon="1.148735">
        <ele>122.9</ele>
        <time>2020-07-10T13:33:10Z</time>
      </trkpt>
      <trkpt lat="43.653773" lon="1.148857">
        <ele>122.9</ele>
        <time>2020-07-10T13:33:13Z</time>
      </trkpt>
      <trkpt lat="43.653818" lon="1.149004">
        <ele>122.9</ele>
        <time>2020-07-10T13:33:16Z</time>
      </trkpt>
      <trkpt lat="43.653863" lon="1.149167">
        <ele>122.1</ele>
        <time>2020-07-10T13:33:19Z</time>
      </trkpt>
      <trkpt lat="43.653893" lon="1.149301">
        <ele>122.1</ele>
        <time>2020-07-10T13:33:21Z</time>
      </trkpt>
      <trkpt lat="43.653917" lon="1.149439">
        <ele>122.1</ele>
        <time>2020-07-10T13:33:23Z</time>
      </trkpt>
      <trkpt lat="43.653943" lon="1.149577">
        <ele>122.1</ele>
        <time>2020-07-10T13:33:25Z</time>
      </trkpt>
      <trkpt lat="43.653967" lon="1.149723">
        <ele>122.1</ele>
        <time>2020-07-10T13:33:27Z</time>
      </trkpt>
      <trkpt lat="43.653990" lon="1.149869">
        <ele>121.3</ele>
        <time>2020-07-10T13:33:29Z</time>
      </trkpt>
      <trkpt lat="43.654015" lon="1.150016">
        <ele>121.3</ele>
        <time>2020-07-10T13:33:31Z</time>
      </trkpt>
      <trkpt lat="43.654041" lon="1.150159">
        <ele>121.3</ele>
        <time>2020-07-10T13:33:33Z</time>
      </trkpt>
      <trkpt lat="43.654069" lon="1.150305">
        <ele>121.3</ele>
        <time>2020-07-10T13:33:35Z</time>
      </trkpt>
      <trkpt lat="43.654093" lon="1.150445">
        <ele>121.3</ele>
        <time>2020-07-10T13:33:37Z</time>
      </trkpt>
      <trkpt lat="43.654123" lon="1.150583">
        <ele>121.3</ele>
        <time>2020-07-10T13:33:39Z</time>
      </trkpt>
      <trkpt lat="43.654152" lon="1.150720">
        <ele>121.3</ele>
        <time>2020-07-10T13:33:41Z</time>
      </trkpt>
      <trkpt lat="43.654184" lon="1.150855">
        <ele>120.5</ele>
        <time>2020-07-10T13:33:43Z</time>
      </trkpt>
      <trkpt lat="43.654219" lon="1.150991">
        <ele>120.5</ele>
        <time>2020-07-10T13:33:45Z</time>
      </trkpt>
      <trkpt lat="43.654254" lon="1.151126">
        <ele>120.5</ele>
        <time>2020-07-10T13:33:47Z</time>
      </trkpt>
      <trkpt lat="43.654288" lon="1.151258">
        <ele>120.5</ele>
        <time>2020-07-10T13:33:49Z</time>
      </trkpt>
      <trkpt lat="43.654330" lon="1.151387">
        <ele>120.5</ele>
        <time>2020-07-10T13:33:51Z</time>
      </trkpt>
      <trkpt lat="43.654375" lon="1.151513">
        <ele>120.5</ele>
        <time>2020-07-10T13:33:53Z</time>
      </trkpt>
      <trkpt lat="43.654423" lon="1.151637">
        <ele>120.5</ele>
        <time>2020-07-10T13:33:55Z</time>
      </trkpt>
      <trkpt lat="43.654476" lon="1.151761">
        <ele>120.5</ele>
        <time>2020-07-10T13:33:57Z</time>
      </trkpt>
      <trkpt lat="43.654530" lon="1.151885">
        <ele>120.5</ele>
        <time>2020-07-10T13:33:59Z</time>
      </trkpt>
      <trkpt lat="43.654589" lon="1.152005">
        <ele>120.5</ele>
        <time>2020-07-10T13:34:01Z</time>
      </trkpt>
      <trkpt lat="43.654648" lon="1.152121">
        <ele>120.5</ele>
        <time>2020-07-10T13:34:03Z</time>
      </trkpt>
      <trkpt lat="43.654708" lon="1.152235">
        <ele>120.5</ele>
        <time>2020-07-10T13:34:05Z</time>
      </trkpt>
      <trkpt lat="43.654771" lon="1.152344">
        <ele>120.5</ele>
        <time>2020-07-10T13:34:07Z</time>
      </trkpt>
      <trkpt lat="43.654833" lon="1.152453">
        <ele>120.5</ele>
        <time>2020-07-10T13:34:09Z</time>
      </trkpt>
      <trkpt lat="43.654896" lon="1.152560">
        <ele>120.5</ele>
        <time>2020-07-10T13:34:11Z</time>
      </trkpt>
      <trkpt lat="43.654959" lon="1.152664">
        <ele>120.5</ele>
        <time>2020-07-10T13:34:13Z</time>
      </trkpt>
      <trkpt lat="43.655017" lon="1.152770">
        <ele>119.7</ele>
        <time>2020-07-10T13:34:15Z</time>
      </trkpt>
      <trkpt lat="43.655104" lon="1.152911">
        <ele>119.7</ele>
        <time>2020-07-10T13:34:18Z</time>
      </trkpt>
      <trkpt lat="43.655162" lon="1.153004">
        <ele>119.7</ele>
        <time>2020-07-10T13:34:20Z</time>
      </trkpt>
      <trkpt lat="43.655220" lon="1.153104">
        <ele>119.7</ele>
        <time>2020-07-10T13:34:22Z</time>
      </trkpt>
      <trkpt lat="43.655277" lon="1.153208">
        <ele>119.7</ele>
        <time>2020-07-10T13:34:24Z</time>
      </trkpt>
      <trkpt lat="43.655333" lon="1.153312">
        <ele>119.7</ele>
        <time>2020-07-10T13:34:26Z</time>
      </trkpt>
      <trkpt lat="43.655413" lon="1.153464">
        <ele>119.8</ele>
        <time>2020-07-10T13:34:29Z</time>
      </trkpt>
      <trkpt lat="43.655465" lon="1.153566">
        <ele>119.8</ele>
        <time>2020-07-10T13:34:31Z</time>
      </trkpt>
      <trkpt lat="43.655545" lon="1.153717">
        <ele>119.8</ele>
        <time>2020-07-10T13:34:34Z</time>
      </trkpt>
      <trkpt lat="43.655623" lon="1.153867">
        <ele>119.8</ele>
        <time>2020-07-10T13:34:37Z</time>
      </trkpt>
      <trkpt lat="43.655702" lon="1.154016">
        <ele>119.8</ele>
        <time>2020-07-10T13:34:40Z</time>
      </trkpt>
      <trkpt lat="43.655776" lon="1.154166">
        <ele>119.8</ele>
        <time>2020-07-10T13:34:43Z</time>
      </trkpt>
      <trkpt lat="43.655828" lon="1.154266">
        <ele>119.8</ele>
        <time>2020-07-10T13:34:45Z</time>
      </trkpt>
      <trkpt lat="43.655912" lon="1.154419">
        <ele>119.8</ele>
        <time>2020-07-10T13:34:48Z</time>
      </trkpt>
      <trkpt lat="43.655971" lon="1.154521">
        <ele>119.8</ele>
        <time>2020-07-10T13:34:50Z</time>
      </trkpt>
      <trkpt lat="43.656024" lon="1.154624">
        <ele>119.8</ele>
        <time>2020-07-10T13:34:52Z</time>
      </trkpt>
      <trkpt lat="43.656073" lon="1.154731">
        <ele>119.8</ele>
        <time>2020-07-10T13:34:54Z</time>
      </trkpt>
      <trkpt lat="43.656129" lon="1.154834">
        <ele>119.8</ele>
        <time>2020-07-10T13:34:56Z</time>
      </trkpt>
      <trkpt lat="43.656185" lon="1.154936">
        <ele>119.8</ele>
        <time>2020-07-10T13:34:58Z</time>
      </trkpt>
      <trkpt lat="43.656262" lon="1.155090">
        <ele>119.8</ele>
        <time>2020-07-10T13:35:01Z</time>
      </trkpt>
      <trkpt lat="43.656335" lon="1.155238">
        <ele>119.8</ele>
        <time>2020-07-10T13:35:04Z</time>
      </trkpt>
      <trkpt lat="43.656413" lon="1.155380">
        <ele>119.8</ele>
        <time>2020-07-10T13:35:07Z</time>
      </trkpt>
      <trkpt lat="43.656492" lon="1.155527">
        <ele>119.9</ele>
        <time>2020-07-10T13:35:10Z</time>
      </trkpt>
      <trkpt lat="43.656573" lon="1.155671">
        <ele>119.9</ele>
        <time>2020-07-10T13:35:13Z</time>
      </trkpt>
      <trkpt lat="43.656651" lon="1.155823">
        <ele>119.9</ele>
        <time>2020-07-10T13:35:16Z</time>
      </trkpt>
      <trkpt lat="43.656728" lon="1.155972">
        <ele>119.9</ele>
        <time>2020-07-10T13:35:19Z</time>
      </trkpt>
      <trkpt lat="43.656802" lon="1.156121">
        <ele>119.9</ele>
        <time>2020-07-10T13:35:22Z</time>
      </trkpt>
      <trkpt lat="43.656876" lon="1.156267">
        <ele>119.9</ele>
        <time>2020-07-10T13:35:25Z</time>
      </trkpt>
      <trkpt lat="43.656953" lon="1.156411">
        <ele>119.9</ele>
        <time>2020-07-10T13:35:28Z</time>
      </trkpt>
      <trkpt lat="43.657034" lon="1.156553">
        <ele>119.9</ele>
        <time>2020-07-10T13:35:31Z</time>
      </trkpt>
      <trkpt lat="43.657114" lon="1.156700">
        <ele>119.9</ele>
        <time>2020-07-10T13:35:34Z</time>
      </trkpt>
      <trkpt lat="43.657200" lon="1.156841">
        <ele>119.9</ele>
        <time>2020-07-10T13:35:37Z</time>
      </trkpt>
      <trkpt lat="43.657259" lon="1.156935">
        <ele>119.9</ele>
        <time>2020-07-10T13:35:39Z</time>
      </trkpt>
      <trkpt lat="43.657349" lon="1.157065">
        <ele>119.9</ele>
        <time>2020-07-10T13:35:42Z</time>
      </trkpt>
      <trkpt lat="43.657444" lon="1.157185">
        <ele>120.0</ele>
        <time>2020-07-10T13:35:45Z</time>
      </trkpt>
      <trkpt lat="43.657543" lon="1.157303">
        <ele>120.0</ele>
        <time>2020-07-10T13:35:48Z</time>
      </trkpt>
      <trkpt lat="43.657612" lon="1.157378">
        <ele>120.0</ele>
        <time>2020-07-10T13:35:50Z</time>
      </trkpt>
      <trkpt lat="43.657717" lon="1.157485">
        <ele>120.0</ele>
        <time>2020-07-10T13:35:53Z</time>
      </trkpt>
      <trkpt lat="43.657819" lon="1.157585">
        <ele>120.0</ele>
        <time>2020-07-10T13:35:56Z</time>
      </trkpt>
      <trkpt lat="43.657915" lon="1.157696">
        <ele>120.0</ele>
        <time>2020-07-10T13:35:59Z</time>
      </trkpt>
      <trkpt lat="43.657981" lon="1.157774">
        <ele>120.0</ele>
        <time>2020-07-10T13:36:01Z</time>
      </trkpt>
      <trkpt lat="43.658075" lon="1.157905">
        <ele>120.0</ele>
        <time>2020-07-10T13:36:04Z</time>
      </trkpt>
      <trkpt lat="43.658147" lon="1.158044">
        <ele>120.0</ele>
        <time>2020-07-10T13:36:07Z</time>
      </trkpt>
      <trkpt lat="43.658206" lon="1.158181">
        <ele>120.0</ele>
        <time>2020-07-10T13:36:10Z</time>
      </trkpt>
      <trkpt lat="43.658263" lon="1.158320">
        <ele>120.1</ele>
        <time>2020-07-10T13:36:13Z</time>
      </trkpt>
      <trkpt lat="43.658319" lon="1.158459">
        <ele>120.1</ele>
        <time>2020-07-10T13:36:16Z</time>
      </trkpt>
      <trkpt lat="43.658381" lon="1.158611">
        <ele>120.1</ele>
        <time>2020-07-10T13:36:19Z</time>
      </trkpt>
      <trkpt lat="43.658446" lon="1.158765">
        <ele>120.1</ele>
        <time>2020-07-10T13:36:22Z</time>
      </trkpt>
      <trkpt lat="43.658508" lon="1.158923">
        <ele>120.1</ele>
        <time>2020-07-10T13:36:25Z</time>
      </trkpt>
      <trkpt lat="43.658570" lon="1.159077">
        <ele>120.1</ele>
        <time>2020-07-10T13:36:28Z</time>
      </trkpt>
      <trkpt lat="43.658637" lon="1.159225">
        <ele>120.1</ele>
        <time>2020-07-10T13:36:31Z</time>
      </trkpt>
      <trkpt lat="43.658696" lon="1.159374">
        <ele>120.1</ele>
        <time>2020-07-10T13:36:34Z</time>
      </trkpt>
      <trkpt lat="43.658760" lon="1.159515">
        <ele>120.1</ele>
        <time>2020-07-10T13:36:37Z</time>
      </trkpt>
      <trkpt lat="43.658817" lon="1.159660">
        <ele>120.1</ele>
        <time>2020-07-10T13:36:40Z</time>
      </trkpt>
      <trkpt lat="43.658876" lon="1.159799">
        <ele>120.1</ele>
        <time>2020-07-10T13:36:43Z</time>
      </trkpt>
      <trkpt lat="43.658932" lon="1.159942">
        <ele>120.1</ele>
        <time>2020-07-10T13:36:46Z</time>
      </trkpt>
      <trkpt lat="43.658994" lon="1.160086">
        <ele>120.1</ele>
        <time>2020-07-10T13:36:49Z</time>
      </trkpt>
      <trkpt lat="43.659057" lon="1.160251">
        <ele>120.1</ele>
        <time>2020-07-10T13:36:52Z</time>
      </trkpt>
      <trkpt lat="43.659094" lon="1.160371">
        <ele>120.1</ele>
        <time>2020-07-10T13:36:54Z</time>
      </trkpt>
      <trkpt lat="43.659134" lon="1.160497">
        <ele>120.1</ele>
        <time>2020-07-10T13:36:56Z</time>
      </trkpt>
      <trkpt lat="43.659171" lon="1.160625">
        <ele>120.1</ele>
        <time>2020-07-10T13:36:58Z</time>
      </trkpt>
      <trkpt lat="43.659206" lon="1.160754">
        <ele>120.1</ele>
        <time>2020-07-10T13:37:00Z</time>
      </trkpt>
      <trkpt lat="43.659241" lon="1.160877">
        <ele>120.1</ele>
        <time>2020-07-10T13:37:02Z</time>
      </trkpt>
      <trkpt lat="43.659278" lon="1.161001">
        <ele>120.1</ele>
        <time>2020-07-10T13:37:04Z</time>
      </trkpt>
      <trkpt lat="43.659310" lon="1.161126">
        <ele>120.1</ele>
        <time>2020-07-10T13:37:06Z</time>
      </trkpt>
      <trkpt lat="43.659344" lon="1.161246">
        <ele>120.1</ele>
        <time>2020-07-10T13:37:08Z</time>
      </trkpt>
      <trkpt lat="43.659378" lon="1.161364">
        <ele>120.1</ele>
        <time>2020-07-10T13:37:10Z</time>
      </trkpt>
      <trkpt lat="43.659427" lon="1.161536">
        <ele>120.1</ele>
        <time>2020-07-10T13:37:13Z</time>
      </trkpt>
      <trkpt lat="43.659472" lon="1.161706">
        <ele>120.1</ele>
        <time>2020-07-10T13:37:16Z</time>
      </trkpt>
      <trkpt lat="43.659520" lon="1.161871">
        <ele>120.2</ele>
        <time>2020-07-10T13:37:19Z</time>
      </trkpt>
      <trkpt lat="43.659565" lon="1.162036">
        <ele>120.2</ele>
        <time>2020-07-10T13:37:22Z</time>
      </trkpt>
      <trkpt lat="43.659622" lon="1.162192">
        <ele>120.2</ele>
        <time>2020-07-10T13:37:25Z</time>
      </trkpt>
      <trkpt lat="43.659668" lon="1.162357">
        <ele>120.2</ele>
        <time>2020-07-10T13:37:28Z</time>
      </trkpt>
      <trkpt lat="43.659725" lon="1.162512">
        <ele>120.2</ele>
        <time>2020-07-10T13:37:31Z</time>
      </trkpt>
      <trkpt lat="43.659775" lon="1.162674">
        <ele>120.2</ele>
        <time>2020-07-10T13:37:34Z</time>
      </trkpt>
      <trkpt lat="43.659816" lon="1.162846">
        <ele>120.2</ele>
        <time>2020-07-10T13:37:37Z</time>
      </trkpt>
      <trkpt lat="43.659865" lon="1.163011">
        <ele>120.2</ele>
        <time>2020-07-10T13:37:40Z</time>
      </trkpt>
      <trkpt lat="43.659895" lon="1.163184">
        <ele>120.2</ele>
        <time>2020-07-10T13:37:43Z</time>
      </trkpt>
      <trkpt lat="43.659941" lon="1.163354">
        <ele>120.2</ele>
        <time>2020-07-10T13:37:46Z</time>
      </trkpt>
      <trkpt lat="43.659981" lon="1.163530">
        <ele>120.2</ele>
        <time>2020-07-10T13:37:49Z</time>
      </trkpt>
      <trkpt lat="43.660030" lon="1.163715">
        <ele>120.2</ele>
        <time>2020-07-10T13:37:52Z</time>
      </trkpt>
      <trkpt lat="43.660061" lon="1.163838">
        <ele>120.2</ele>
        <time>2020-07-10T13:37:54Z</time>
      </trkpt>
      <trkpt lat="43.660095" lon="1.163962">
        <ele>120.2</ele>
        <time>2020-07-10T13:37:56Z</time>
      </trkpt>
      <trkpt lat="43.660133" lon="1.164086">
        <ele>120.2</ele>
        <time>2020-07-10T13:37:58Z</time>
      </trkpt>
      <trkpt lat="43.660168" lon="1.164211">
        <ele>120.2</ele>
        <time>2020-07-10T13:38:00Z</time>
      </trkpt>
      <trkpt lat="43.660208" lon="1.164337">
        <ele>120.2</ele>
        <time>2020-07-10T13:38:02Z</time>
      </trkpt>
      <trkpt lat="43.660249" lon="1.164465">
        <ele>120.1</ele>
        <time>2020-07-10T13:38:04Z</time>
      </trkpt>
      <trkpt lat="43.660292" lon="1.164593">
        <ele>120.1</ele>
        <time>2020-07-10T13:38:06Z</time>
      </trkpt>
      <trkpt lat="43.660337" lon="1.164719">
        <ele>120.1</ele>
        <time>2020-07-10T13:38:08Z</time>
      </trkpt>
      <trkpt lat="43.660383" lon="1.164840">
        <ele>120.1</ele>
        <time>2020-07-10T13:38:10Z</time>
      </trkpt>
      <trkpt lat="43.660428" lon="1.164959">
        <ele>120.1</ele>
        <time>2020-07-10T13:38:12Z</time>
      </trkpt>
      <trkpt lat="43.660475" lon="1.165077">
        <ele>120.1</ele>
        <time>2020-07-10T13:38:14Z</time>
      </trkpt>
      <trkpt lat="43.660523" lon="1.165190">
        <ele>120.1</ele>
        <time>2020-07-10T13:38:16Z</time>
      </trkpt>
      <trkpt lat="43.660593" lon="1.165349">
        <ele>120.1</ele>
        <time>2020-07-10T13:38:19Z</time>
      </trkpt>
      <trkpt lat="43.660661" lon="1.165512">
        <ele>120.1</ele>
        <time>2020-07-10T13:38:22Z</time>
      </trkpt>
      <trkpt lat="43.660721" lon="1.165675">
        <ele>120.1</ele>
        <time>2020-07-10T13:38:25Z</time>
      </trkpt>
      <trkpt lat="43.660785" lon="1.165838">
        <ele>120.1</ele>
        <time>2020-07-10T13:38:28Z</time>
      </trkpt>
      <trkpt lat="43.660832" lon="1.165949">
        <ele>120.1</ele>
        <time>2020-07-10T13:38:30Z</time>
      </trkpt>
      <trkpt lat="43.660880" lon="1.166059">
        <ele>122.5</ele>
        <time>2020-07-10T13:38:32Z</time>
      </trkpt>
      <trkpt lat="43.660958" lon="1.166214">
        <ele>122.5</ele>
        <time>2020-07-10T13:38:35Z</time>
      </trkpt>
      <trkpt lat="43.661033" lon="1.166365">
        <ele>122.5</ele>
        <time>2020-07-10T13:38:38Z</time>
      </trkpt>
      <trkpt lat="43.661111" lon="1.166510">
        <ele>122.5</ele>
        <time>2020-07-10T13:38:41Z</time>
      </trkpt>
      <trkpt lat="43.661174" lon="1.166650">
        <ele>122.5</ele>
        <time>2020-07-10T13:38:44Z</time>
      </trkpt>
      <trkpt lat="43.661244" lon="1.166780">
        <ele>122.5</ele>
        <time>2020-07-10T13:38:47Z</time>
      </trkpt>
      <trkpt lat="43.661313" lon="1.166916">
        <ele>122.5</ele>
        <time>2020-07-10T13:38:50Z</time>
      </trkpt>
      <trkpt lat="43.661375" lon="1.167048">
        <ele>122.5</ele>
        <time>2020-07-10T13:38:53Z</time>
      </trkpt>
      <trkpt lat="43.661449" lon="1.167178">
        <ele>122.5</ele>
        <time>2020-07-10T13:38:56Z</time>
      </trkpt>
      <trkpt lat="43.661536" lon="1.167311">
        <ele>122.5</ele>
        <time>2020-07-10T13:38:59Z</time>
      </trkpt>
      <trkpt lat="43.661625" lon="1.167446">
        <ele>122.5</ele>
        <time>2020-07-10T13:39:02Z</time>
      </trkpt>
      <trkpt lat="43.661714" lon="1.167549">
        <ele>122.5</ele>
        <time>2020-07-10T13:39:05Z</time>
      </trkpt>
      <trkpt lat="43.661789" lon="1.167624">
        <ele>122.5</ele>
        <time>2020-07-10T13:39:08Z</time>
      </trkpt>
      <trkpt lat="43.661869" lon="1.167711">
        <ele>122.5</ele>
        <time>2020-07-10T13:39:12Z</time>
      </trkpt>
      <trkpt lat="43.661960" lon="1.167810">
        <ele>122.5</ele>
        <time>2020-07-10T13:39:17Z</time>
      </trkpt>
      <trkpt lat="43.662035" lon="1.167915">
        <ele>123.5</ele>
        <time>2020-07-10T13:39:21Z</time>
      </trkpt>
      <trkpt lat="43.662097" lon="1.168037">
        <ele>123.5</ele>
        <time>2020-07-10T13:39:26Z</time>
      </trkpt>
      <trkpt lat="43.662147" lon="1.168154">
        <ele>123.5</ele>
        <time>2020-07-10T13:39:32Z</time>
      </trkpt>
      <trkpt lat="43.662212" lon="1.168446">
        <ele>123.6</ele>
        <time>2020-07-10T13:40:46Z</time>
      </trkpt>
      <trkpt lat="43.662317" lon="1.168419">
        <ele>123.6</ele>
        <time>2020-07-10T13:40:53Z</time>
      </trkpt>
      <trkpt lat="43.662379" lon="1.168437">
        <ele>124.4</ele>
        <time>2020-07-10T13:41:04Z</time>
      </trkpt>
      <trkpt lat="43.662436" lon="1.168387">
        <ele>124.4</ele>
        <time>2020-07-10T13:41:13Z</time>
      </trkpt>
      <trkpt lat="43.662530" lon="1.168374">
        <ele>124.4</ele>
        <time>2020-07-10T13:41:19Z</time>
      </trkpt>
      <trkpt lat="43.662608" lon="1.168322">
        <ele>125.1</ele>
        <time>2020-07-10T13:41:25Z</time>
      </trkpt>
      <trkpt lat="43.662699" lon="1.168258">
        <ele>125.1</ele>
        <time>2020-07-10T13:41:31Z</time>
      </trkpt>
      <trkpt lat="43.662796" lon="1.168178">
        <ele>126.3</ele>
        <time>2020-07-10T13:41:37Z</time>
      </trkpt>
      <trkpt lat="43.662893" lon="1.168079">
        <ele>127.1</ele>
        <time>2020-07-10T13:41:44Z</time>
      </trkpt>
      <trkpt lat="43.662983" lon="1.167994">
        <ele>127.9</ele>
        <time>2020-07-10T13:41:50Z</time>
      </trkpt>
      <trkpt lat="43.663077" lon="1.167894">
        <ele>128.7</ele>
        <time>2020-07-10T13:41:56Z</time>
      </trkpt>
      <trkpt lat="43.663154" lon="1.167762">
        <ele>129.8</ele>
        <time>2020-07-10T13:42:03Z</time>
      </trkpt>
      <trkpt lat="43.663224" lon="1.167641">
        <ele>131.3</ele>
        <time>2020-07-10T13:42:10Z</time>
      </trkpt>
      <trkpt lat="43.663273" lon="1.167515">
        <ele>132.1</ele>
        <time>2020-07-10T13:42:16Z</time>
      </trkpt>
      <trkpt lat="43.663317" lon="1.167381">
        <ele>132.9</ele>
        <time>2020-07-10T13:42:22Z</time>
      </trkpt>
      <trkpt lat="43.663377" lon="1.167259">
        <ele>133.8</ele>
        <time>2020-07-10T13:42:29Z</time>
      </trkpt>
      <trkpt lat="43.663440" lon="1.167162">
        <ele>134.6</ele>
        <time>2020-07-10T13:42:34Z</time>
      </trkpt>
      <trkpt lat="43.663506" lon="1.167058">
        <ele>136.3</ele>
        <time>2020-07-10T13:42:40Z</time>
      </trkpt>
      <trkpt lat="43.663577" lon="1.166954">
        <ele>137.2</ele>
        <time>2020-07-10T13:42:46Z</time>
      </trkpt>
      <trkpt lat="43.663676" lon="1.166860">
        <ele>138.0</ele>
        <time>2020-07-10T13:42:53Z</time>
      </trkpt>
      <trkpt lat="43.663778" lon="1.166782">
        <ele>138.9</ele>
        <time>2020-07-10T13:43:00Z</time>
      </trkpt>
      <trkpt lat="43.663868" lon="1.166687">
        <ele>139.8</ele>
        <time>2020-07-10T13:43:06Z</time>
      </trkpt>
      <trkpt lat="43.663944" lon="1.166584">
        <ele>140.7</ele>
        <time>2020-07-10T13:43:12Z</time>
      </trkpt>
      <trkpt lat="43.664030" lon="1.166517">
        <ele>141.7</ele>
        <time>2020-07-10T13:43:18Z</time>
      </trkpt>
      <trkpt lat="43.664109" lon="1.166433">
        <ele>143.5</ele>
        <time>2020-07-10T13:43:26Z</time>
      </trkpt>
      <trkpt lat="43.664168" lon="1.166309">
        <ele>145.6</ele>
        <time>2020-07-10T13:45:51Z</time>
      </trkpt>
      <trkpt lat="43.664252" lon="1.166253">
        <ele>146.5</ele>
        <time>2020-07-10T13:45:57Z</time>
      </trkpt>
      <trkpt lat="43.664329" lon="1.166184">
        <ele>147.6</ele>
        <time>2020-07-10T13:46:02Z</time>
      </trkpt>
      <trkpt lat="43.664406" lon="1.166109">
        <ele>148.7</ele>
        <time>2020-07-10T13:46:07Z</time>
      </trkpt>
      <trkpt lat="43.664492" lon="1.166026">
        <ele>149.7</ele>
        <time>2020-07-10T13:46:13Z</time>
      </trkpt>
      <trkpt lat="43.664573" lon="1.165921">
        <ele>151.5</ele>
        <time>2020-07-10T13:46:19Z</time>
      </trkpt>
      <trkpt lat="43.664646" lon="1.165807">
        <ele>152.2</ele>
        <time>2020-07-10T13:46:25Z</time>
      </trkpt>
      <trkpt lat="43.664704" lon="1.165688">
        <ele>153.9</ele>
        <time>2020-07-10T13:46:31Z</time>
      </trkpt>
      <trkpt lat="43.664755" lon="1.165567">
        <ele>153.9</ele>
        <time>2020-07-10T13:46:37Z</time>
      </trkpt>
      <trkpt lat="43.664817" lon="1.165437">
        <ele>154.9</ele>
        <time>2020-07-10T13:46:43Z</time>
      </trkpt>
      <trkpt lat="43.664872" lon="1.165294">
        <ele>155.7</ele>
        <time>2020-07-10T13:46:49Z</time>
      </trkpt>
      <trkpt lat="43.664925" lon="1.165165">
        <ele>156.5</ele>
        <time>2020-07-10T13:46:55Z</time>
      </trkpt>
      <trkpt lat="43.664980" lon="1.165034">
        <ele>157.3</ele>
        <time>2020-07-10T13:47:01Z</time>
      </trkpt>
      <trkpt lat="43.665040" lon="1.164901">
        <ele>158.2</ele>
        <time>2020-07-10T13:47:07Z</time>
      </trkpt>
      <trkpt lat="43.665107" lon="1.164765">
        <ele>159.0</ele>
        <time>2020-07-10T13:47:13Z</time>
      </trkpt>
      <trkpt lat="43.665173" lon="1.164631">
        <ele>159.9</ele>
        <time>2020-07-10T13:47:19Z</time>
      </trkpt>
      <trkpt lat="43.665233" lon="1.164513">
        <ele>159.9</ele>
        <time>2020-07-10T13:47:24Z</time>
      </trkpt>
      <trkpt lat="43.665289" lon="1.164395">
        <ele>159.9</ele>
        <time>2020-07-10T13:47:29Z</time>
      </trkpt>
      <trkpt lat="43.665361" lon="1.164271">
        <ele>160.8</ele>
        <time>2020-07-10T13:47:35Z</time>
      </trkpt>
      <trkpt lat="43.665414" lon="1.164154">
        <ele>161.6</ele>
        <time>2020-07-10T13:47:40Z</time>
      </trkpt>
      <trkpt lat="43.665461" lon="1.164012">
        <ele>162.4</ele>
        <time>2020-07-10T13:47:46Z</time>
      </trkpt>
      <trkpt lat="43.665510" lon="1.163888">
        <ele>162.4</ele>
        <time>2020-07-10T13:47:52Z</time>
      </trkpt>
      <trkpt lat="43.665544" lon="1.163762">
        <ele>163.4</ele>
        <time>2020-07-10T13:47:58Z</time>
      </trkpt>
      <trkpt lat="43.665580" lon="1.163634">
        <ele>164.2</ele>
        <time>2020-07-10T13:48:04Z</time>
      </trkpt>
      <trkpt lat="43.665614" lon="1.163504">
        <ele>165.1</ele>
        <time>2020-07-10T13:48:11Z</time>
      </trkpt>
      <trkpt lat="43.665639" lon="1.163370">
        <ele>166.9</ele>
        <time>2020-07-10T13:48:17Z</time>
      </trkpt>
      <trkpt lat="43.665647" lon="1.163236">
        <ele>167.7</ele>
        <time>2020-07-10T13:48:23Z</time>
      </trkpt>
      <trkpt lat="43.665645" lon="1.163088">
        <ele>168.5</ele>
        <time>2020-07-10T13:48:30Z</time>
      </trkpt>
      <trkpt lat="43.665624" lon="1.162948">
        <ele>169.3</ele>
        <time>2020-07-10T13:48:37Z</time>
      </trkpt>
      <trkpt lat="43.665606" lon="1.162807">
        <ele>170.1</ele>
        <time>2020-07-10T13:48:44Z</time>
      </trkpt>
      <trkpt lat="43.665574" lon="1.162655">
        <ele>171.7</ele>
        <time>2020-07-10T13:48:51Z</time>
      </trkpt>
      <trkpt lat="43.665541" lon="1.162515">
        <ele>172.5</ele>
        <time>2020-07-10T13:48:57Z</time>
      </trkpt>
      <trkpt lat="43.665513" lon="1.162366">
        <ele>174.2</ele>
        <time>2020-07-10T13:49:04Z</time>
      </trkpt>
      <trkpt lat="43.665489" lon="1.162230">
        <ele>175.2</ele>
        <time>2020-07-10T13:49:10Z</time>
      </trkpt>
      <trkpt lat="43.665488" lon="1.162092">
        <ele>176.8</ele>
        <time>2020-07-10T13:49:16Z</time>
      </trkpt>
      <trkpt lat="43.665508" lon="1.161942">
        <ele>177.7</ele>
        <time>2020-07-10T13:49:23Z</time>
      </trkpt>
      <trkpt lat="43.665523" lon="1.161799">
        <ele>178.5</ele>
        <time>2020-07-10T13:49:30Z</time>
      </trkpt>
      <trkpt lat="43.665538" lon="1.161653">
        <ele>179.2</ele>
        <time>2020-07-10T13:49:37Z</time>
      </trkpt>
      <trkpt lat="43.665553" lon="1.161488">
        <ele>180.0</ele>
        <time>2020-07-10T13:49:43Z</time>
      </trkpt>
      <trkpt lat="43.665579" lon="1.161336">
        <ele>180.8</ele>
        <time>2020-07-10T13:49:48Z</time>
      </trkpt>
      <trkpt lat="43.665605" lon="1.161198">
        <ele>180.9</ele>
        <time>2020-07-10T13:49:52Z</time>
      </trkpt>
      <trkpt lat="43.665633" lon="1.161065">
        <ele>180.8</ele>
        <time>2020-07-10T13:49:56Z</time>
      </trkpt>
      <trkpt lat="43.665649" lon="1.160933">
        <ele>181.7</ele>
        <time>2020-07-10T13:50:00Z</time>
      </trkpt>
      <trkpt lat="43.665667" lon="1.160808">
        <ele>182.5</ele>
        <time>2020-07-10T13:50:04Z</time>
      </trkpt>
      <trkpt lat="43.665687" lon="1.160663">
        <ele>182.6</ele>
        <time>2020-07-10T13:50:09Z</time>
      </trkpt>
      <trkpt lat="43.665701" lon="1.160542">
        <ele>183.5</ele>
        <time>2020-07-10T13:50:13Z</time>
      </trkpt>
      <trkpt lat="43.665721" lon="1.160403">
        <ele>183.7</ele>
        <time>2020-07-10T13:50:18Z</time>
      </trkpt>
      <trkpt lat="43.665735" lon="1.160270">
        <ele>185.6</ele>
        <time>2020-07-10T13:50:23Z</time>
      </trkpt>
      <trkpt lat="43.665757" lon="1.160138">
        <ele>186.7</ele>
        <time>2020-07-10T13:50:28Z</time>
      </trkpt>
      <trkpt lat="43.665778" lon="1.160018">
        <ele>187.4</ele>
        <time>2020-07-10T13:50:33Z</time>
      </trkpt>
      <trkpt lat="43.665805" lon="1.159885">
        <ele>188.2</ele>
        <time>2020-07-10T13:50:38Z</time>
      </trkpt>
      <trkpt lat="43.665830" lon="1.159758">
        <ele>189.1</ele>
        <time>2020-07-10T13:50:43Z</time>
      </trkpt>
      <trkpt lat="43.665857" lon="1.159628">
        <ele>189.2</ele>
        <time>2020-07-10T13:50:48Z</time>
      </trkpt>
      <trkpt lat="43.665881" lon="1.159496">
        <ele>190.0</ele>
        <time>2020-07-10T13:50:53Z</time>
      </trkpt>
      <trkpt lat="43.665907" lon="1.159364">
        <ele>190.7</ele>
        <time>2020-07-10T13:50:58Z</time>
      </trkpt>
      <trkpt lat="43.665940" lon="1.159220">
        <ele>190.9</ele>
        <time>2020-07-10T13:51:04Z</time>
      </trkpt>
      <trkpt lat="43.665976" lon="1.159087">
        <ele>191.7</ele>
        <time>2020-07-10T13:51:10Z</time>
      </trkpt>
      <trkpt lat="43.666017" lon="1.158944">
        <ele>191.7</ele>
        <time>2020-07-10T13:51:16Z</time>
      </trkpt>
      <trkpt lat="43.666060" lon="1.158815">
        <ele>192.4</ele>
        <time>2020-07-10T13:51:21Z</time>
      </trkpt>
      <trkpt lat="43.666100" lon="1.158678">
        <ele>192.5</ele>
        <time>2020-07-10T13:51:26Z</time>
      </trkpt>
      <trkpt lat="43.666143" lon="1.158527">
        <ele>193.3</ele>
        <time>2020-07-10T13:51:31Z</time>
      </trkpt>
      <trkpt lat="43.666173" lon="1.158393">
        <ele>193.4</ele>
        <time>2020-07-10T13:51:35Z</time>
      </trkpt>
      <trkpt lat="43.666203" lon="1.158245">
        <ele>193.4</ele>
        <time>2020-07-10T13:51:40Z</time>
      </trkpt>
      <trkpt lat="43.666228" lon="1.158118">
        <ele>193.4</ele>
        <time>2020-07-10T13:51:44Z</time>
      </trkpt>
      <trkpt lat="43.666250" lon="1.157986">
        <ele>193.4</ele>
        <time>2020-07-10T13:51:48Z</time>
      </trkpt>
      <trkpt lat="43.666272" lon="1.157848">
        <ele>193.4</ele>
        <time>2020-07-10T13:51:52Z</time>
      </trkpt>
      <trkpt lat="43.666299" lon="1.157711">
        <ele>193.4</ele>
        <time>2020-07-10T13:51:56Z</time>
      </trkpt>
      <trkpt lat="43.666324" lon="1.157566">
        <ele>193.5</ele>
        <time>2020-07-10T13:52:00Z</time>
      </trkpt>
      <trkpt lat="43.666363" lon="1.157410">
        <ele>193.4</ele>
        <time>2020-07-10T13:52:04Z</time>
      </trkpt>
      <trkpt lat="43.666393" lon="1.157283">
        <ele>193.5</ele>
        <time>2020-07-10T13:52:07Z</time>
      </trkpt>
      <trkpt lat="43.666428" lon="1.157155">
        <ele>193.5</ele>
        <time>2020-07-10T13:52:10Z</time>
      </trkpt>
      <trkpt lat="43.666472" lon="1.157028">
        <ele>193.5</ele>
        <time>2020-07-10T13:52:13Z</time>
      </trkpt>
      <trkpt lat="43.666515" lon="1.156895">
        <ele>193.5</ele>
        <time>2020-07-10T13:52:16Z</time>
      </trkpt>
      <trkpt lat="43.666562" lon="1.156774">
        <ele>193.5</ele>
        <time>2020-07-10T13:52:19Z</time>
      </trkpt>
      <trkpt lat="43.666613" lon="1.156669">
        <ele>193.5</ele>
        <time>2020-07-10T13:52:22Z</time>
      </trkpt>
      <trkpt lat="43.666662" lon="1.156553">
        <ele>193.5</ele>
        <time>2020-07-10T13:52:25Z</time>
      </trkpt>
      <trkpt lat="43.666728" lon="1.156416">
        <ele>193.6</ele>
        <time>2020-07-10T13:52:29Z</time>
      </trkpt>
      <trkpt lat="43.666783" lon="1.156286">
        <ele>193.6</ele>
        <time>2020-07-10T13:52:33Z</time>
      </trkpt>
      <trkpt lat="43.666837" lon="1.156164">
        <ele>193.7</ele>
        <time>2020-07-10T13:52:37Z</time>
      </trkpt>
      <trkpt lat="43.666895" lon="1.156060">
        <ele>193.7</ele>
        <time>2020-07-10T13:52:41Z</time>
      </trkpt>
      <trkpt lat="43.666953" lon="1.155956">
        <ele>193.7</ele>
        <time>2020-07-10T13:52:45Z</time>
      </trkpt>
      <trkpt lat="43.666992" lon="1.155833">
        <ele>194.6</ele>
        <time>2020-07-10T13:52:49Z</time>
      </trkpt>
      <trkpt lat="43.667055" lon="1.155733">
        <ele>194.6</ele>
        <time>2020-07-10T13:52:53Z</time>
      </trkpt>
      <trkpt lat="43.667093" lon="1.155616">
        <ele>195.6</ele>
        <time>2020-07-10T13:52:57Z</time>
      </trkpt>
      <trkpt lat="43.667137" lon="1.155501">
        <ele>195.6</ele>
        <time>2020-07-10T13:53:01Z</time>
      </trkpt>
      <trkpt lat="43.667195" lon="1.155390">
        <ele>196.5</ele>
        <time>2020-07-10T13:53:05Z</time>
      </trkpt>
      <trkpt lat="43.667259" lon="1.155278">
        <ele>197.4</ele>
        <time>2020-07-10T13:53:09Z</time>
      </trkpt>
      <trkpt lat="43.667328" lon="1.155179">
        <ele>197.4</ele>
        <time>2020-07-10T13:53:13Z</time>
      </trkpt>
      <trkpt lat="43.667411" lon="1.155096">
        <ele>198.2</ele>
        <time>2020-07-10T13:53:17Z</time>
      </trkpt>
      <trkpt lat="43.667488" lon="1.155021">
        <ele>198.2</ele>
        <time>2020-07-10T13:53:21Z</time>
      </trkpt>
      <trkpt lat="43.667583" lon="1.154952">
        <ele>199.0</ele>
        <time>2020-07-10T13:53:26Z</time>
      </trkpt>
      <trkpt lat="43.667671" lon="1.154892">
        <ele>199.0</ele>
        <time>2020-07-10T13:53:30Z</time>
      </trkpt>
      <trkpt lat="43.667764" lon="1.154835">
        <ele>199.8</ele>
        <time>2020-07-10T13:53:34Z</time>
      </trkpt>
      <trkpt lat="43.667852" lon="1.154789">
        <ele>200.6</ele>
        <time>2020-07-10T13:53:37Z</time>
      </trkpt>
      <trkpt lat="43.667959" lon="1.154724">
        <ele>200.6</ele>
        <time>2020-07-10T13:53:41Z</time>
      </trkpt>
      <trkpt lat="43.668061" lon="1.154676">
        <ele>201.7</ele>
        <time>2020-07-10T13:53:45Z</time>
      </trkpt>
      <trkpt lat="43.668172" lon="1.154621">
        <ele>201.7</ele>
        <time>2020-07-10T13:53:49Z</time>
      </trkpt>
      <trkpt lat="43.668277" lon="1.154571">
        <ele>202.6</ele>
        <time>2020-07-10T13:53:53Z</time>
      </trkpt>
      <trkpt lat="43.668386" lon="1.154497">
        <ele>202.6</ele>
        <time>2020-07-10T13:53:57Z</time>
      </trkpt>
      <trkpt lat="43.668472" lon="1.154432">
        <ele>203.5</ele>
        <time>2020-07-10T13:54:01Z</time>
      </trkpt>
      <trkpt lat="43.668584" lon="1.154367">
        <ele>203.5</ele>
        <time>2020-07-10T13:54:06Z</time>
      </trkpt>
      <trkpt lat="43.668688" lon="1.154317">
        <ele>204.3</ele>
        <time>2020-07-10T13:54:11Z</time>
      </trkpt>
      <trkpt lat="43.668770" lon="1.154263">
        <ele>205.2</ele>
        <time>2020-07-10T13:54:16Z</time>
      </trkpt>
      <trkpt lat="43.668858" lon="1.154179">
        <ele>206.0</ele>
        <time>2020-07-10T13:54:22Z</time>
      </trkpt>
      <trkpt lat="43.668960" lon="1.154079">
        <ele>207.6</ele>
        <time>2020-07-10T13:54:29Z</time>
      </trkpt>
      <trkpt lat="43.669073" lon="1.153978">
        <ele>208.4</ele>
        <time>2020-07-10T13:54:35Z</time>
      </trkpt>
      <trkpt lat="43.669180" lon="1.153908">
        <ele>209.4</ele>
        <time>2020-07-10T13:54:41Z</time>
      </trkpt>
      <trkpt lat="43.669294" lon="1.153894">
        <ele>210.2</ele>
        <time>2020-07-10T13:54:46Z</time>
      </trkpt>
      <trkpt lat="43.669397" lon="1.153883">
        <ele>211.0</ele>
        <time>2020-07-10T13:54:52Z</time>
      </trkpt>
      <trkpt lat="43.669494" lon="1.153869">
        <ele>211.9</ele>
        <time>2020-07-10T13:54:58Z</time>
      </trkpt>
      <trkpt lat="43.669605" lon="1.153860">
        <ele>213.6</ele>
        <time>2020-07-10T13:55:04Z</time>
      </trkpt>
      <trkpt lat="43.669705" lon="1.153855">
        <ele>214.4</ele>
        <time>2020-07-10T13:55:09Z</time>
      </trkpt>
      <trkpt lat="43.669825" lon="1.153856">
        <ele>216.1</ele>
        <time>2020-07-10T13:55:15Z</time>
      </trkpt>
      <trkpt lat="43.669939" lon="1.153853">
        <ele>216.0</ele>
        <time>2020-07-10T13:55:22Z</time>
      </trkpt>
      <trkpt lat="43.670060" lon="1.153843">
        <ele>216.9</ele>
        <time>2020-07-10T13:55:29Z</time>
      </trkpt>
      <trkpt lat="43.670160" lon="1.153780">
        <ele>216.8</ele>
        <time>2020-07-10T13:55:33Z</time>
      </trkpt>
      <trkpt lat="43.670232" lon="1.153679">
        <ele>216.8</ele>
        <time>2020-07-10T13:55:36Z</time>
      </trkpt>
      <trkpt lat="43.670279" lon="1.153562">
        <ele>216.7</ele>
        <time>2020-07-10T13:55:39Z</time>
      </trkpt>
      <trkpt lat="43.670325" lon="1.153452">
        <ele>216.7</ele>
        <time>2020-07-10T13:55:42Z</time>
      </trkpt>
      <trkpt lat="43.670370" lon="1.153323">
        <ele>216.7</ele>
        <time>2020-07-10T13:55:46Z</time>
      </trkpt>
      <trkpt lat="43.670410" lon="1.153191">
        <ele>216.8</ele>
        <time>2020-07-10T13:55:50Z</time>
      </trkpt>
      <trkpt lat="43.670451" lon="1.153049">
        <ele>216.8</ele>
        <time>2020-07-10T13:55:54Z</time>
      </trkpt>
      <trkpt lat="43.670485" lon="1.152904">
        <ele>216.9</ele>
        <time>2020-07-10T13:55:58Z</time>
      </trkpt>
      <trkpt lat="43.670531" lon="1.152764">
        <ele>216.8</ele>
        <time>2020-07-10T13:56:02Z</time>
      </trkpt>
      <trkpt lat="43.670578" lon="1.152616">
        <ele>216.8</ele>
        <time>2020-07-10T13:56:06Z</time>
      </trkpt>
      <trkpt lat="43.670630" lon="1.152488">
        <ele>216.8</ele>
        <time>2020-07-10T13:56:09Z</time>
      </trkpt>
      <trkpt lat="43.670688" lon="1.152338">
        <ele>216.7</ele>
        <time>2020-07-10T13:56:12Z</time>
      </trkpt>
      <trkpt lat="43.670748" lon="1.152176">
        <ele>216.7</ele>
        <time>2020-07-10T13:56:15Z</time>
      </trkpt>
      <trkpt lat="43.670796" lon="1.152056">
        <ele>216.7</ele>
        <time>2020-07-10T13:56:17Z</time>
      </trkpt>
      <trkpt lat="43.670842" lon="1.151921">
        <ele>216.6</ele>
        <time>2020-07-10T13:56:19Z</time>
      </trkpt>
      <trkpt lat="43.670894" lon="1.151784">
        <ele>214.0</ele>
        <time>2020-07-10T13:56:21Z</time>
      </trkpt>
      <trkpt lat="43.670948" lon="1.151644">
        <ele>213.0</ele>
        <time>2020-07-10T13:56:23Z</time>
      </trkpt>
      <trkpt lat="43.671010" lon="1.151498">
        <ele>212.1</ele>
        <time>2020-07-10T13:56:25Z</time>
      </trkpt>
      <trkpt lat="43.671072" lon="1.151359">
        <ele>210.9</ele>
        <time>2020-07-10T13:56:27Z</time>
      </trkpt>
      <trkpt lat="43.671124" lon="1.151234">
        <ele>210.9</ele>
        <time>2020-07-10T13:56:29Z</time>
      </trkpt>
      <trkpt lat="43.671174" lon="1.151133">
        <ele>210.0</ele>
        <time>2020-07-10T13:56:31Z</time>
      </trkpt>
      <trkpt lat="43.671251" lon="1.151023">
        <ele>210.1</ele>
        <time>2020-07-10T13:56:35Z</time>
      </trkpt>
      <trkpt lat="43.671374" lon="1.151098">
        <ele>210.4</ele>
        <time>2020-07-10T13:58:36Z</time>
      </trkpt>
      <trkpt lat="43.671353" lon="1.151237">
        <ele>209.5</ele>
        <time>2020-07-10T13:58:40Z</time>
      </trkpt>
      <trkpt lat="43.671329" lon="1.151401">
        <ele>209.5</ele>
        <time>2020-07-10T13:58:44Z</time>
      </trkpt>
      <trkpt lat="43.671312" lon="1.151539">
        <ele>209.5</ele>
        <time>2020-07-10T13:58:47Z</time>
      </trkpt>
      <trkpt lat="43.671287" lon="1.151694">
        <ele>209.5</ele>
        <time>2020-07-10T13:58:50Z</time>
      </trkpt>
      <trkpt lat="43.671268" lon="1.151855">
        <ele>209.5</ele>
        <time>2020-07-10T13:58:53Z</time>
      </trkpt>
      <trkpt lat="43.671241" lon="1.152015">
        <ele>208.7</ele>
        <time>2020-07-10T13:58:56Z</time>
      </trkpt>
      <trkpt lat="43.671203" lon="1.152177">
        <ele>208.7</ele>
        <time>2020-07-10T13:58:59Z</time>
      </trkpt>
      <trkpt lat="43.671158" lon="1.152329">
        <ele>208.7</ele>
        <time>2020-07-10T13:59:02Z</time>
      </trkpt>
      <trkpt lat="43.671111" lon="1.152488">
        <ele>207.9</ele>
        <time>2020-07-10T13:59:05Z</time>
      </trkpt>
      <trkpt lat="43.671059" lon="1.152653">
        <ele>207.1</ele>
        <time>2020-07-10T13:59:08Z</time>
      </trkpt>
      <trkpt lat="43.671005" lon="1.152813">
        <ele>207.1</ele>
        <time>2020-07-10T13:59:11Z</time>
      </trkpt>
      <trkpt lat="43.670956" lon="1.152921">
        <ele>206.2</ele>
        <time>2020-07-10T13:59:13Z</time>
      </trkpt>
      <trkpt lat="43.670889" lon="1.153092">
        <ele>206.2</ele>
        <time>2020-07-10T13:59:16Z</time>
      </trkpt>
      <trkpt lat="43.670850" lon="1.153208">
        <ele>206.2</ele>
        <time>2020-07-10T13:59:18Z</time>
      </trkpt>
      <trkpt lat="43.670820" lon="1.153330">
        <ele>206.2</ele>
        <time>2020-07-10T13:59:20Z</time>
      </trkpt>
      <trkpt lat="43.670794" lon="1.153461">
        <ele>205.4</ele>
        <time>2020-07-10T13:59:22Z</time>
      </trkpt>
      <trkpt lat="43.670772" lon="1.153603">
        <ele>205.4</ele>
        <time>2020-07-10T13:59:24Z</time>
      </trkpt>
      <trkpt lat="43.670757" lon="1.153746">
        <ele>204.5</ele>
        <time>2020-07-10T13:59:26Z</time>
      </trkpt>
      <trkpt lat="43.670746" lon="1.153897">
        <ele>204.5</ele>
        <time>2020-07-10T13:59:28Z</time>
      </trkpt>
      <trkpt lat="43.670744" lon="1.154047">
        <ele>203.6</ele>
        <time>2020-07-10T13:59:30Z</time>
      </trkpt>
      <trkpt lat="43.670747" lon="1.154180">
        <ele>203.6</ele>
        <time>2020-07-10T13:59:32Z</time>
      </trkpt>
      <trkpt lat="43.670756" lon="1.154315">
        <ele>202.7</ele>
        <time>2020-07-10T13:59:34Z</time>
      </trkpt>
      <trkpt lat="43.670765" lon="1.154444">
        <ele>202.6</ele>
        <time>2020-07-10T13:59:36Z</time>
      </trkpt>
      <trkpt lat="43.670785" lon="1.154617">
        <ele>201.5</ele>
        <time>2020-07-10T13:59:39Z</time>
      </trkpt>
      <trkpt lat="43.670823" lon="1.154812">
        <ele>200.7</ele>
        <time>2020-07-10T13:59:42Z</time>
      </trkpt>
      <trkpt lat="43.670851" lon="1.154950">
        <ele>200.7</ele>
        <time>2020-07-10T13:59:44Z</time>
      </trkpt>
      <trkpt lat="43.670883" lon="1.155089">
        <ele>199.9</ele>
        <time>2020-07-10T13:59:46Z</time>
      </trkpt>
      <trkpt lat="43.670921" lon="1.155216">
        <ele>199.9</ele>
        <time>2020-07-10T13:59:48Z</time>
      </trkpt>
      <trkpt lat="43.670982" lon="1.155331">
        <ele>199.9</ele>
        <time>2020-07-10T13:59:50Z</time>
      </trkpt>
      <trkpt lat="43.671065" lon="1.155436">
        <ele>198.8</ele>
        <time>2020-07-10T13:59:52Z</time>
      </trkpt>
      <trkpt lat="43.671154" lon="1.155527">
        <ele>198.9</ele>
        <time>2020-07-10T13:59:54Z</time>
      </trkpt>
      <trkpt lat="43.671237" lon="1.155620">
        <ele>197.9</ele>
        <time>2020-07-10T13:59:56Z</time>
      </trkpt>
      <trkpt lat="43.671332" lon="1.155755">
        <ele>197.1</ele>
        <time>2020-07-10T13:59:59Z</time>
      </trkpt>
      <trkpt lat="43.671422" lon="1.155813">
        <ele>197.1</ele>
        <time>2020-07-10T14:00:03Z</time>
      </trkpt>
      <trkpt lat="43.671490" lon="1.155688">
        <ele>197.2</ele>
        <time>2020-07-10T14:00:10Z</time>
      </trkpt>
      <trkpt lat="43.671563" lon="1.155535">
        <ele>195.5</ele>
        <time>2020-07-10T14:00:13Z</time>
      </trkpt>
      <trkpt lat="43.671631" lon="1.155416">
        <ele>194.7</ele>
        <time>2020-07-10T14:00:15Z</time>
      </trkpt>
      <trkpt lat="43.671702" lon="1.155278">
        <ele>193.9</ele>
        <time>2020-07-10T14:00:17Z</time>
      </trkpt>
      <trkpt lat="43.671771" lon="1.155147">
        <ele>192.7</ele>
        <time>2020-07-10T14:00:19Z</time>
      </trkpt>
      <trkpt lat="43.671829" lon="1.155036">
        <ele>191.6</ele>
        <time>2020-07-10T14:00:22Z</time>
      </trkpt>
      <trkpt lat="43.671887" lon="1.154969">
        <ele>189.5</ele>
        <time>2020-07-10T14:01:14Z</time>
      </trkpt>
      <trkpt lat="43.672009" lon="1.154903">
        <ele>189.5</ele>
        <time>2020-07-10T14:01:17Z</time>
      </trkpt>
      <trkpt lat="43.672126" lon="1.154876">
        <ele>188.3</ele>
        <time>2020-07-10T14:01:19Z</time>
      </trkpt>
      <trkpt lat="43.672262" lon="1.154906">
        <ele>187.3</ele>
        <time>2020-07-10T14:01:21Z</time>
      </trkpt>
      <trkpt lat="43.672420" lon="1.154962">
        <ele>185.8</ele>
        <time>2020-07-10T14:01:23Z</time>
      </trkpt>
      <trkpt lat="43.672596" lon="1.155032">
        <ele>183.8</ele>
        <time>2020-07-10T14:01:25Z</time>
      </trkpt>
      <trkpt lat="43.672691" lon="1.155069">
        <ele>182.8</ele>
        <time>2020-07-10T14:01:26Z</time>
      </trkpt>
      <trkpt lat="43.672790" lon="1.155105">
        <ele>181.6</ele>
        <time>2020-07-10T14:01:27Z</time>
      </trkpt>
      <trkpt lat="43.672892" lon="1.155143">
        <ele>180.6</ele>
        <time>2020-07-10T14:01:28Z</time>
      </trkpt>
      <trkpt lat="43.672994" lon="1.155183">
        <ele>179.6</ele>
        <time>2020-07-10T14:01:29Z</time>
      </trkpt>
      <trkpt lat="43.673098" lon="1.155223">
        <ele>178.6</ele>
        <time>2020-07-10T14:01:30Z</time>
      </trkpt>
      <trkpt lat="43.673203" lon="1.155261">
        <ele>178.5</ele>
        <time>2020-07-10T14:01:31Z</time>
      </trkpt>
      <trkpt lat="43.673308" lon="1.155301">
        <ele>176.6</ele>
        <time>2020-07-10T14:01:32Z</time>
      </trkpt>
      <trkpt lat="43.673413" lon="1.155342">
        <ele>175.5</ele>
        <time>2020-07-10T14:01:33Z</time>
      </trkpt>
      <trkpt lat="43.673517" lon="1.155388">
        <ele>174.4</ele>
        <time>2020-07-10T14:01:34Z</time>
      </trkpt>
      <trkpt lat="43.673622" lon="1.155436">
        <ele>174.4</ele>
        <time>2020-07-10T14:01:35Z</time>
      </trkpt>
      <trkpt lat="43.673729" lon="1.155482">
        <ele>173.1</ele>
        <time>2020-07-10T14:01:36Z</time>
      </trkpt>
      <trkpt lat="43.673838" lon="1.155524">
        <ele>173.1</ele>
        <time>2020-07-10T14:01:37Z</time>
      </trkpt>
      <trkpt lat="43.673944" lon="1.155565">
        <ele>171.0</ele>
        <time>2020-07-10T14:01:38Z</time>
      </trkpt>
      <trkpt lat="43.674043" lon="1.155609">
        <ele>169.6</ele>
        <time>2020-07-10T14:01:39Z</time>
      </trkpt>
      <trkpt lat="43.674137" lon="1.155650">
        <ele>168.3</ele>
        <time>2020-07-10T14:01:40Z</time>
      </trkpt>
      <trkpt lat="43.674305" lon="1.155699">
        <ele>167.1</ele>
        <time>2020-07-10T14:01:42Z</time>
      </trkpt>
      <trkpt lat="43.674466" lon="1.155664">
        <ele>167.1</ele>
        <time>2020-07-10T14:01:44Z</time>
      </trkpt>
      <trkpt lat="43.674598" lon="1.155545">
        <ele>165.3</ele>
        <time>2020-07-10T14:01:46Z</time>
      </trkpt>
      <trkpt lat="43.674730" lon="1.155419">
        <ele>164.5</ele>
        <time>2020-07-10T14:01:48Z</time>
      </trkpt>
      <trkpt lat="43.674860" lon="1.155290">
        <ele>163.6</ele>
        <time>2020-07-10T14:01:50Z</time>
      </trkpt>
      <trkpt lat="43.674986" lon="1.155156">
        <ele>162.7</ele>
        <time>2020-07-10T14:01:52Z</time>
      </trkpt>
      <trkpt lat="43.675093" lon="1.154990">
        <ele>162.7</ele>
        <time>2020-07-10T14:01:54Z</time>
      </trkpt>
      <trkpt lat="43.675179" lon="1.154783">
        <ele>160.1</ele>
        <time>2020-07-10T14:01:56Z</time>
      </trkpt>
      <trkpt lat="43.675262" lon="1.154558">
        <ele>158.2</ele>
        <time>2020-07-10T14:01:58Z</time>
      </trkpt>
      <trkpt lat="43.675332" lon="1.154335">
        <ele>156.4</ele>
        <time>2020-07-10T14:02:00Z</time>
      </trkpt>
      <trkpt lat="43.675391" lon="1.154150">
        <ele>156.4</ele>
        <time>2020-07-10T14:02:02Z</time>
      </trkpt>
      <trkpt lat="43.675440" lon="1.154003">
        <ele>156.5</ele>
        <time>2020-07-10T14:02:04Z</time>
      </trkpt>
      <trkpt lat="43.675472" lon="1.153881">
        <ele>159.2</ele>
        <time>2020-07-10T14:02:06Z</time>
      </trkpt>
      <trkpt lat="43.675505" lon="1.153724">
        <ele>161.8</ele>
        <time>2020-07-10T14:02:09Z</time>
      </trkpt>
      <trkpt lat="43.675530" lon="1.153589">
        <ele>161.8</ele>
        <time>2020-07-10T14:02:12Z</time>
      </trkpt>
      <trkpt lat="43.675547" lon="1.153443">
        <ele>161.9</ele>
        <time>2020-07-10T14:02:15Z</time>
      </trkpt>
      <trkpt lat="43.675568" lon="1.153284">
        <ele>161.9</ele>
        <time>2020-07-10T14:02:18Z</time>
      </trkpt>
      <trkpt lat="43.675588" lon="1.153121">
        <ele>162.7</ele>
        <time>2020-07-10T14:02:21Z</time>
      </trkpt>
      <trkpt lat="43.675600" lon="1.152980">
        <ele>162.6</ele>
        <time>2020-07-10T14:02:24Z</time>
      </trkpt>
      <trkpt lat="43.675613" lon="1.152846">
        <ele>163.4</ele>
        <time>2020-07-10T14:02:27Z</time>
      </trkpt>
      <trkpt lat="43.675610" lon="1.152691">
        <ele>163.4</ele>
        <time>2020-07-10T14:02:30Z</time>
      </trkpt>
      <trkpt lat="43.675616" lon="1.152559">
        <ele>163.4</ele>
        <time>2020-07-10T14:02:32Z</time>
      </trkpt>
      <trkpt lat="43.675624" lon="1.152409">
        <ele>163.4</ele>
        <time>2020-07-10T14:02:34Z</time>
      </trkpt>
      <trkpt lat="43.675633" lon="1.152270">
        <ele>161.0</ele>
        <time>2020-07-10T14:02:36Z</time>
      </trkpt>
      <trkpt lat="43.675638" lon="1.152095">
        <ele>161.0</ele>
        <time>2020-07-10T14:02:39Z</time>
      </trkpt>
      <trkpt lat="43.675640" lon="1.151967">
        <ele>161.0</ele>
        <time>2020-07-10T14:02:42Z</time>
      </trkpt>
      <trkpt lat="43.675648" lon="1.151826">
        <ele>161.0</ele>
        <time>2020-07-10T14:02:46Z</time>
      </trkpt>
      <trkpt lat="43.675648" lon="1.151695">
        <ele>163.4</ele>
        <time>2020-07-10T14:02:49Z</time>
      </trkpt>
      <trkpt lat="43.675652" lon="1.151542">
        <ele>164.5</ele>
        <time>2020-07-10T14:02:53Z</time>
      </trkpt>
      <trkpt lat="43.675651" lon="1.151417">
        <ele>165.3</ele>
        <time>2020-07-10T14:02:57Z</time>
      </trkpt>
      <trkpt lat="43.675663" lon="1.151296">
        <ele>166.1</ele>
        <time>2020-07-10T14:03:15Z</time>
      </trkpt>
      <trkpt lat="43.675672" lon="1.151140">
        <ele>166.0</ele>
        <time>2020-07-10T14:03:20Z</time>
      </trkpt>
      <trkpt lat="43.675693" lon="1.151009">
        <ele>165.9</ele>
        <time>2020-07-10T14:03:23Z</time>
      </trkpt>
      <trkpt lat="43.675722" lon="1.150876">
        <ele>166.0</ele>
        <time>2020-07-10T14:03:26Z</time>
      </trkpt>
      <trkpt lat="43.675766" lon="1.150724">
        <ele>166.0</ele>
        <time>2020-07-10T14:03:30Z</time>
      </trkpt>
      <trkpt lat="43.675811" lon="1.150615">
        <ele>166.0</ele>
        <time>2020-07-10T14:03:34Z</time>
      </trkpt>
      <trkpt lat="43.675886" lon="1.150525">
        <ele>166.1</ele>
        <time>2020-07-10T14:03:41Z</time>
      </trkpt>
      <trkpt lat="43.675979" lon="1.150597">
        <ele>166.1</ele>
        <time>2020-07-10T14:03:47Z</time>
      </trkpt>
      <trkpt lat="43.676034" lon="1.150744">
        <ele>166.1</ele>
        <time>2020-07-10T14:03:50Z</time>
      </trkpt>
      <trkpt lat="43.676086" lon="1.150874">
        <ele>163.4</ele>
        <time>2020-07-10T14:03:52Z</time>
      </trkpt>
      <trkpt lat="43.676160" lon="1.151033">
        <ele>161.2</ele>
        <time>2020-07-10T14:03:54Z</time>
      </trkpt>
      <trkpt lat="43.676259" lon="1.151212">
        <ele>159.1</ele>
        <time>2020-07-10T14:03:56Z</time>
      </trkpt>
      <trkpt lat="43.676320" lon="1.151316">
        <ele>157.8</ele>
        <time>2020-07-10T14:03:57Z</time>
      </trkpt>
      <trkpt lat="43.676416" lon="1.151557">
        <ele>155.2</ele>
        <time>2020-07-10T14:03:59Z</time>
      </trkpt>
      <trkpt lat="43.676455" lon="1.151689">
        <ele>154.1</ele>
        <time>2020-07-10T14:04:00Z</time>
      </trkpt>
      <trkpt lat="43.676493" lon="1.151817">
        <ele>154.0</ele>
        <time>2020-07-10T14:04:01Z</time>
      </trkpt>
      <trkpt lat="43.676583" lon="1.152046">
        <ele>152.8</ele>
        <time>2020-07-10T14:04:03Z</time>
      </trkpt>
      <trkpt lat="43.676681" lon="1.152234">
        <ele>152.9</ele>
        <time>2020-07-10T14:04:05Z</time>
      </trkpt>
      <trkpt lat="43.676755" lon="1.152383">
        <ele>152.0</ele>
        <time>2020-07-10T14:04:07Z</time>
      </trkpt>
      <trkpt lat="43.676834" lon="1.152509">
        <ele>152.1</ele>
        <time>2020-07-10T14:04:10Z</time>
      </trkpt>
      <trkpt lat="43.676856" lon="1.152595">
        <ele>151.5</ele>
        <time>2020-07-10T14:04:38Z</time>
      </trkpt>
      <trkpt lat="43.676912" lon="1.152556">
        <ele>151.6</ele>
        <time>2020-07-10T14:06:47Z</time>
      </trkpt>
      <trkpt lat="43.676966" lon="1.152413">
        <ele>151.6</ele>
        <time>2020-07-10T14:06:51Z</time>
      </trkpt>
      <trkpt lat="43.676996" lon="1.152293">
        <ele>151.6</ele>
        <time>2020-07-10T14:06:54Z</time>
      </trkpt>
      <trkpt lat="43.677018" lon="1.152166">
        <ele>151.7</ele>
        <time>2020-07-10T14:06:57Z</time>
      </trkpt>
      <trkpt lat="43.677042" lon="1.152041">
        <ele>151.7</ele>
        <time>2020-07-10T14:07:00Z</time>
      </trkpt>
      <trkpt lat="43.677076" lon="1.151897">
        <ele>151.7</ele>
        <time>2020-07-10T14:07:04Z</time>
      </trkpt>
      <trkpt lat="43.677112" lon="1.151783">
        <ele>151.7</ele>
        <time>2020-07-10T14:07:07Z</time>
      </trkpt>
      <trkpt lat="43.677180" lon="1.151646">
        <ele>154.0</ele>
        <time>2020-07-10T14:07:11Z</time>
      </trkpt>
      <trkpt lat="43.677258" lon="1.151535">
        <ele>154.0</ele>
        <time>2020-07-10T14:07:15Z</time>
      </trkpt>
      <trkpt lat="43.677346" lon="1.151452">
        <ele>154.0</ele>
        <time>2020-07-10T14:07:19Z</time>
      </trkpt>
      <trkpt lat="43.677432" lon="1.151380">
        <ele>154.8</ele>
        <time>2020-07-10T14:07:23Z</time>
      </trkpt>
      <trkpt lat="43.677521" lon="1.151305">
        <ele>154.8</ele>
        <time>2020-07-10T14:07:27Z</time>
      </trkpt>
      <trkpt lat="43.677595" lon="1.151227">
        <ele>154.8</ele>
        <time>2020-07-10T14:07:31Z</time>
      </trkpt>
      <trkpt lat="43.677673" lon="1.151146">
        <ele>155.6</ele>
        <time>2020-07-10T14:07:35Z</time>
      </trkpt>
      <trkpt lat="43.677743" lon="1.151065">
        <ele>155.5</ele>
        <time>2020-07-10T14:07:39Z</time>
      </trkpt>
      <trkpt lat="43.677826" lon="1.150973">
        <ele>155.5</ele>
        <time>2020-07-10T14:07:44Z</time>
      </trkpt>
      <trkpt lat="43.677824" lon="1.150850">
        <ele>156.3</ele>
        <time>2020-07-10T14:07:51Z</time>
      </trkpt>
      <trkpt lat="43.677756" lon="1.150729">
        <ele>157.0</ele>
        <time>2020-07-10T14:08:25Z</time>
      </trkpt>
      <trkpt lat="43.677688" lon="1.150635">
        <ele>157.0</ele>
        <time>2020-07-10T14:08:32Z</time>
      </trkpt>
      <trkpt lat="43.677635" lon="1.150525">
        <ele>157.0</ele>
        <time>2020-07-10T14:08:38Z</time>
      </trkpt>
      <trkpt lat="43.677584" lon="1.150398">
        <ele>157.0</ele>
        <time>2020-07-10T14:08:46Z</time>
      </trkpt>
      <trkpt lat="43.677544" lon="1.150280">
        <ele>157.0</ele>
        <time>2020-07-10T14:08:52Z</time>
      </trkpt>
      <trkpt lat="43.677473" lon="1.150163">
        <ele>157.0</ele>
        <time>2020-07-10T14:08:59Z</time>
      </trkpt>
      <trkpt lat="43.677427" lon="1.150026">
        <ele>157.0</ele>
        <time>2020-07-10T14:09:03Z</time>
      </trkpt>
      <trkpt lat="43.677377" lon="1.149894">
        <ele>157.0</ele>
        <time>2020-07-10T14:09:06Z</time>
      </trkpt>
      <trkpt lat="43.677327" lon="1.149764">
        <ele>157.0</ele>
        <time>2020-07-10T14:09:09Z</time>
      </trkpt>
      <trkpt lat="43.677278" lon="1.149632">
        <ele>157.0</ele>
        <time>2020-07-10T14:09:12Z</time>
      </trkpt>
      <trkpt lat="43.677237" lon="1.149498">
        <ele>157.0</ele>
        <time>2020-07-10T14:09:15Z</time>
      </trkpt>
      <trkpt lat="43.677203" lon="1.149363">
        <ele>157.0</ele>
        <time>2020-07-10T14:09:18Z</time>
      </trkpt>
      <trkpt lat="43.677147" lon="1.149218">
        <ele>157.0</ele>
        <time>2020-07-10T14:09:22Z</time>
      </trkpt>
      <trkpt lat="43.677106" lon="1.149088">
        <ele>157.0</ele>
        <time>2020-07-10T14:09:26Z</time>
      </trkpt>
      <trkpt lat="43.677061" lon="1.148956">
        <ele>158.0</ele>
        <time>2020-07-10T14:09:31Z</time>
      </trkpt>
      <trkpt lat="43.677006" lon="1.148837">
        <ele>159.0</ele>
        <time>2020-07-10T14:09:36Z</time>
      </trkpt>
      <trkpt lat="43.676968" lon="1.148725">
        <ele>159.8</ele>
        <time>2020-07-10T14:09:41Z</time>
      </trkpt>
      <trkpt lat="43.676934" lon="1.148607">
        <ele>160.6</ele>
        <time>2020-07-10T14:09:46Z</time>
      </trkpt>
      <trkpt lat="43.676885" lon="1.148471">
        <ele>161.4</ele>
        <time>2020-07-10T14:09:52Z</time>
      </trkpt>
      <trkpt lat="43.676838" lon="1.148320">
        <ele>161.4</ele>
        <time>2020-07-10T14:09:58Z</time>
      </trkpt>
      <trkpt lat="43.676797" lon="1.148188">
        <ele>162.4</ele>
        <time>2020-07-10T14:10:05Z</time>
      </trkpt>
      <trkpt lat="43.676756" lon="1.148069">
        <ele>163.4</ele>
        <time>2020-07-10T14:10:11Z</time>
      </trkpt>
      <trkpt lat="43.676709" lon="1.147934">
        <ele>163.4</ele>
        <time>2020-07-10T14:10:17Z</time>
      </trkpt>
      <trkpt lat="43.676663" lon="1.147794">
        <ele>165.4</ele>
        <time>2020-07-10T14:10:23Z</time>
      </trkpt>
      <trkpt lat="43.676617" lon="1.147666">
        <ele>166.2</ele>
        <time>2020-07-10T14:10:29Z</time>
      </trkpt>
      <trkpt lat="43.676570" lon="1.147543">
        <ele>167.1</ele>
        <time>2020-07-10T14:10:35Z</time>
      </trkpt>
      <trkpt lat="43.676518" lon="1.147424">
        <ele>168.7</ele>
        <time>2020-07-10T14:10:42Z</time>
      </trkpt>
      <trkpt lat="43.676479" lon="1.147305">
        <ele>169.5</ele>
        <time>2020-07-10T14:10:49Z</time>
      </trkpt>
      <trkpt lat="43.676418" lon="1.147195">
        <ele>170.3</ele>
        <time>2020-07-10T14:10:56Z</time>
      </trkpt>
      <trkpt lat="43.676356" lon="1.147090">
        <ele>171.2</ele>
        <time>2020-07-10T14:11:02Z</time>
      </trkpt>
      <trkpt lat="43.676295" lon="1.146981">
        <ele>172.1</ele>
        <time>2020-07-10T14:11:08Z</time>
      </trkpt>
      <trkpt lat="43.676233" lon="1.146866">
        <ele>173.1</ele>
        <time>2020-07-10T14:11:14Z</time>
      </trkpt>
      <trkpt lat="43.676176" lon="1.146743">
        <ele>174.0</ele>
        <time>2020-07-10T14:11:20Z</time>
      </trkpt>
      <trkpt lat="43.676115" lon="1.146633">
        <ele>174.8</ele>
        <time>2020-07-10T14:11:26Z</time>
      </trkpt>
      <trkpt lat="43.676052" lon="1.146523">
        <ele>175.7</ele>
        <time>2020-07-10T14:11:32Z</time>
      </trkpt>
      <trkpt lat="43.675987" lon="1.146419">
        <ele>176.5</ele>
        <time>2020-07-10T14:11:38Z</time>
      </trkpt>
      <trkpt lat="43.675913" lon="1.146311">
        <ele>177.5</ele>
        <time>2020-07-10T14:11:44Z</time>
      </trkpt>
      <trkpt lat="43.675854" lon="1.146216">
        <ele>178.4</ele>
        <time>2020-07-10T14:11:49Z</time>
      </trkpt>
      <trkpt lat="43.675776" lon="1.146105">
        <ele>179.2</ele>
        <time>2020-07-10T14:11:55Z</time>
      </trkpt>
      <trkpt lat="43.675707" lon="1.146016">
        <ele>179.2</ele>
        <time>2020-07-10T14:12:00Z</time>
      </trkpt>
      <trkpt lat="43.675643" lon="1.145927">
        <ele>180.1</ele>
        <time>2020-07-10T14:12:05Z</time>
      </trkpt>
      <trkpt lat="43.675564" lon="1.145820">
        <ele>181.0</ele>
        <time>2020-07-10T14:12:11Z</time>
      </trkpt>
      <trkpt lat="43.675496" lon="1.145733">
        <ele>181.2</ele>
        <time>2020-07-10T14:12:16Z</time>
      </trkpt>
      <trkpt lat="43.675427" lon="1.145649">
        <ele>182.3</ele>
        <time>2020-07-10T14:12:21Z</time>
      </trkpt>
      <trkpt lat="43.675351" lon="1.145542">
        <ele>183.1</ele>
        <time>2020-07-10T14:12:27Z</time>
      </trkpt>
      <trkpt lat="43.675279" lon="1.145454">
        <ele>183.1</ele>
        <time>2020-07-10T14:12:32Z</time>
      </trkpt>
      <trkpt lat="43.675205" lon="1.145372">
        <ele>184.0</ele>
        <time>2020-07-10T14:12:37Z</time>
      </trkpt>
      <trkpt lat="43.675133" lon="1.145291">
        <ele>184.9</ele>
        <time>2020-07-10T14:12:42Z</time>
      </trkpt>
      <trkpt lat="43.675062" lon="1.145206">
        <ele>186.5</ele>
        <time>2020-07-10T14:12:47Z</time>
      </trkpt>
      <trkpt lat="43.674983" lon="1.145111">
        <ele>187.4</ele>
        <time>2020-07-10T14:12:53Z</time>
      </trkpt>
      <trkpt lat="43.674912" lon="1.145010">
        <ele>188.3</ele>
        <time>2020-07-10T14:12:59Z</time>
      </trkpt>
      <trkpt lat="43.674847" lon="1.144927">
        <ele>189.2</ele>
        <time>2020-07-10T14:13:05Z</time>
      </trkpt>
      <trkpt lat="43.674769" lon="1.144821">
        <ele>191.1</ele>
        <time>2020-07-10T14:13:11Z</time>
      </trkpt>
      <trkpt lat="43.674695" lon="1.144728">
        <ele>192.0</ele>
        <time>2020-07-10T14:13:17Z</time>
      </trkpt>
      <trkpt lat="43.674622" lon="1.144601">
        <ele>192.8</ele>
        <time>2020-07-10T14:13:24Z</time>
      </trkpt>
      <trkpt lat="43.674565" lon="1.144483">
        <ele>194.4</ele>
        <time>2020-07-10T14:13:30Z</time>
      </trkpt>
      <trkpt lat="43.674499" lon="1.144372">
        <ele>195.5</ele>
        <time>2020-07-10T14:13:36Z</time>
      </trkpt>
      <trkpt lat="43.674446" lon="1.144262">
        <ele>197.2</ele>
        <time>2020-07-10T14:13:42Z</time>
      </trkpt>
      <trkpt lat="43.674392" lon="1.144139">
        <ele>199.1</ele>
        <time>2020-07-10T14:13:48Z</time>
      </trkpt>
      <trkpt lat="43.674338" lon="1.144002">
        <ele>200.0</ele>
        <time>2020-07-10T14:13:54Z</time>
      </trkpt>
      <trkpt lat="43.674294" lon="1.143873">
        <ele>200.8</ele>
        <time>2020-07-10T14:14:00Z</time>
      </trkpt>
      <trkpt lat="43.674231" lon="1.143747">
        <ele>202.4</ele>
        <time>2020-07-10T14:14:07Z</time>
      </trkpt>
      <trkpt lat="43.674174" lon="1.143625">
        <ele>203.4</ele>
        <time>2020-07-10T14:14:13Z</time>
      </trkpt>
      <trkpt lat="43.674113" lon="1.143511">
        <ele>204.2</ele>
        <time>2020-07-10T14:14:19Z</time>
      </trkpt>
      <trkpt lat="43.674044" lon="1.143392">
        <ele>205.1</ele>
        <time>2020-07-10T14:14:25Z</time>
      </trkpt>
      <trkpt lat="43.673976" lon="1.143274">
        <ele>205.9</ele>
        <time>2020-07-10T14:14:32Z</time>
      </trkpt>
      <trkpt lat="43.673907" lon="1.143158">
        <ele>206.8</ele>
        <time>2020-07-10T14:14:39Z</time>
      </trkpt>
      <trkpt lat="43.673828" lon="1.143059">
        <ele>207.7</ele>
        <time>2020-07-10T14:14:45Z</time>
      </trkpt>
      <trkpt lat="43.673756" lon="1.142946">
        <ele>208.6</ele>
        <time>2020-07-10T14:14:52Z</time>
      </trkpt>
      <trkpt lat="43.673679" lon="1.142814">
        <ele>209.4</ele>
        <time>2020-07-10T14:15:00Z</time>
      </trkpt>
      <trkpt lat="43.673593" lon="1.142682">
        <ele>210.3</ele>
        <time>2020-07-10T14:15:07Z</time>
      </trkpt>
      <trkpt lat="43.673513" lon="1.142565">
        <ele>211.1</ele>
        <time>2020-07-10T14:15:14Z</time>
      </trkpt>
      <trkpt lat="43.673430" lon="1.142455">
        <ele>212.0</ele>
        <time>2020-07-10T14:15:20Z</time>
      </trkpt>
      <trkpt lat="43.673360" lon="1.142338">
        <ele>212.0</ele>
        <time>2020-07-10T14:15:27Z</time>
      </trkpt>
      <trkpt lat="43.673289" lon="1.142219">
        <ele>212.8</ele>
        <time>2020-07-10T14:15:34Z</time>
      </trkpt>
      <trkpt lat="43.673221" lon="1.142102">
        <ele>212.8</ele>
        <time>2020-07-10T14:15:40Z</time>
      </trkpt>
      <trkpt lat="43.673153" lon="1.141952">
        <ele>214.4</ele>
        <time>2020-07-10T14:15:46Z</time>
      </trkpt>
      <trkpt lat="43.673079" lon="1.141784">
        <ele>214.4</ele>
        <time>2020-07-10T14:15:52Z</time>
      </trkpt>
      <trkpt lat="43.673025" lon="1.141657">
        <ele>215.4</ele>
        <time>2020-07-10T14:15:59Z</time>
      </trkpt>
      <trkpt lat="43.672967" lon="1.141503">
        <ele>216.2</ele>
        <time>2020-07-10T14:16:06Z</time>
      </trkpt>
      <trkpt lat="43.672923" lon="1.141379">
        <ele>217.8</ele>
        <time>2020-07-10T14:16:12Z</time>
      </trkpt>
      <trkpt lat="43.672907" lon="1.141223">
        <ele>218.6</ele>
        <time>2020-07-10T14:16:18Z</time>
      </trkpt>
      <trkpt lat="43.672894" lon="1.141072">
        <ele>219.4</ele>
        <time>2020-07-10T14:16:24Z</time>
      </trkpt>
      <trkpt lat="43.672899" lon="1.140915">
        <ele>221.3</ele>
        <time>2020-07-10T14:16:30Z</time>
      </trkpt>
      <trkpt lat="43.672914" lon="1.140758">
        <ele>222.1</ele>
        <time>2020-07-10T14:16:36Z</time>
      </trkpt>
      <trkpt lat="43.672928" lon="1.140576">
        <ele>224.0</ele>
        <time>2020-07-10T14:16:43Z</time>
      </trkpt>
      <trkpt lat="43.672941" lon="1.140436">
        <ele>226.0</ele>
        <time>2020-07-10T14:16:49Z</time>
      </trkpt>
      <trkpt lat="43.672959" lon="1.140288">
        <ele>226.9</ele>
        <time>2020-07-10T14:16:55Z</time>
      </trkpt>
      <trkpt lat="43.672970" lon="1.140132">
        <ele>228.6</ele>
        <time>2020-07-10T14:17:01Z</time>
      </trkpt>
      <trkpt lat="43.672992" lon="1.140001">
        <ele>230.4</ele>
        <time>2020-07-10T14:17:07Z</time>
      </trkpt>
      <trkpt lat="43.673000" lon="1.139862">
        <ele>231.2</ele>
        <time>2020-07-10T14:17:13Z</time>
      </trkpt>
      <trkpt lat="43.672988" lon="1.139719">
        <ele>232.8</ele>
        <time>2020-07-10T14:17:20Z</time>
      </trkpt>
      <trkpt lat="43.672939" lon="1.139607">
        <ele>234.5</ele>
        <time>2020-07-10T14:17:27Z</time>
      </trkpt>
      <trkpt lat="43.672848" lon="1.139538">
        <ele>235.4</ele>
        <time>2020-07-10T14:17:34Z</time>
      </trkpt>
      <trkpt lat="43.672751" lon="1.139528">
        <ele>237.2</ele>
        <time>2020-07-10T14:17:41Z</time>
      </trkpt>
      <trkpt lat="43.672645" lon="1.139494">
        <ele>238.9</ele>
        <time>2020-07-10T14:17:48Z</time>
      </trkpt>
      <trkpt lat="43.672553" lon="1.139475">
        <ele>240.5</ele>
        <time>2020-07-10T14:17:56Z</time>
      </trkpt>
      <trkpt lat="43.672468" lon="1.139414">
        <ele>241.3</ele>
        <time>2020-07-10T14:18:03Z</time>
      </trkpt>
      <trkpt lat="43.672379" lon="1.139358">
        <ele>243.0</ele>
        <time>2020-07-10T14:18:13Z</time>
      </trkpt>
      <trkpt lat="43.672274" lon="1.139301">
        <ele>243.9</ele>
        <time>2020-07-10T14:18:22Z</time>
      </trkpt>
      <trkpt lat="43.672174" lon="1.139259">
        <ele>243.9</ele>
        <time>2020-07-10T14:18:30Z</time>
      </trkpt>
      <trkpt lat="43.672066" lon="1.139225">
        <ele>243.9</ele>
        <time>2020-07-10T14:18:38Z</time>
      </trkpt>
    </trkseg>
  </trk>
</gpx>

